<?xml version="1.0" encoding="UTF-8" standalone="no" ?>
<gpx xmlns="http://www.topografix.com/GPX/1/1" xmlns:xsi="http://www.w3.org/2001/XMLSchema-instance" xsi:schemaLocation="http://www.topografix.com/GPX/1/1 http://www.topografix.com/GPX/1/1/gpx.xsd" version="1.1" creator="VisuGPX - https://www.visugpx.com">
  <metadata>
    <name>Turon de Néouvielle - 3025 m</name>
    <desc><![CDATA[Sortie en ski de randonnée en collective avec le CAF de PAU au Turon de Néouvielle par le vallon de la Glère au départ de chez Louisette. Itinéraire classiques par les lacs de Maniportet]]></desc>
  </metadata>
  <wpt lat="42.89623" lon="0.0824">
    <ele>1546.52</ele>
    <name><![CDATA[0000044]]></name>
    <type><![CDATA[Point de départ]]></type>
  </wpt>
  <wpt lat="42.89608" lon="0.0824">
    <ele>1529.53</ele>
    <name><![CDATA[0000045]]></name>
    <desc><![CDATA[<p><br /><h3>Nom: Segment: 1</h3><br />Heure de départ: 04/05/2018 08:18<br/>Heure d'arrivée: 04/05/2018 16:16<br/>Distance: 20,3km (07:58)<br/>Temps déplacement: 04:00<br/>Vitesse moyenne: 2,54 km/h<br/>Vitesse moyenne mouv.: 5,03 km/h<br/>Vitesse Max.: 41,07 km/h<br/>Altitude minimale: 1511 m<br/>Altitude maximale: 3028 m<br/>Vitesse de montée: 333,8 m/h<br/>Vitesse de descente: -511,7 m/h<br/>Gain d'altitude: 1572 m<br/>Perte d'altitude: -1624 m<br/>Temps de montée: 04:42<br/>Temps de descente: 03:10<br/></p>]]></desc>
    <type><![CDATA[Point d'arrivée]]></type>
  </wpt>
  <trk>
    <name><![CDATA[2018-04-05 08:18]]></name>
    <desc><![CDATA[<p>Heure de départ: 04/05/2018 08:18<br/>Heure d'arrivée: 04/05/2018 16:16<br/>Distance: 20,3 km (07:58)<br/>Temps déplacement: 04:00<br/>Vitesse moyenne: 2,54 km/h<br/>Vitesse moyenne mouv.: 5,05 km/h<br/>Vitesse Max.: 41,07 km/h<br/>Altitude minimale: 1511 m<br/>Altitude maximale: 3028 m<br/>Vitesse de montée: 336,8 m/h<br/>Vitesse de descente: -472,4 m/h<br/>Gain d'altitude: 1561 m<br/>Perte d'altitude: -1570 m<br/>Temps de montée: 04:38<br/>Temps de descente: 03:19<br/></p><hr align="center" width="480" style="height: 2px; width: 517px"/>]]></desc>
    <trkseg>
      <trkpt lat="42.89623" lon="0.0824">
        <ele>1546.52</ele>
        <time>2018-04-05T06:18:03Z</time>
      </trkpt>
      <trkpt lat="42.89605" lon="0.08247">
        <ele>1532.53</ele>
        <time>2018-04-05T06:22:23Z</time>
      </trkpt>
      <trkpt lat="42.89587" lon="0.08252">
        <ele>1532.52</ele>
        <time>2018-04-05T06:22:39Z</time>
      </trkpt>
      <trkpt lat="42.89579" lon="0.08275">
        <ele>1527</ele>
        <time>2018-04-05T06:22:54Z</time>
      </trkpt>
      <trkpt lat="42.8958" lon="0.08247">
        <ele>1552.12</ele>
        <time>2018-04-05T06:24:44Z</time>
      </trkpt>
      <trkpt lat="42.896" lon="0.08273">
        <ele>1559.35</ele>
        <time>2018-04-05T06:24:46Z</time>
      </trkpt>
      <trkpt lat="42.89565" lon="0.08255">
        <ele>1541.69</ele>
        <time>2018-04-05T06:24:53Z</time>
      </trkpt>
      <trkpt lat="42.8958" lon="0.08275">
        <ele>1511.42</ele>
        <time>2018-04-05T06:25:03Z</time>
      </trkpt>
      <trkpt lat="42.89557" lon="0.08235">
        <ele>1574.52</ele>
        <time>2018-04-05T06:27:20Z</time>
      </trkpt>
      <trkpt lat="42.89569" lon="0.08255">
        <ele>1552.91</ele>
        <time>2018-04-05T06:27:38Z</time>
      </trkpt>
      <trkpt lat="42.89562" lon="0.08278">
        <ele>1534.22</ele>
        <time>2018-04-05T06:31:09Z</time>
      </trkpt>
      <trkpt lat="42.89544" lon="0.08284">
        <ele>1538.52</ele>
        <time>2018-04-05T06:31:30Z</time>
      </trkpt>
      <trkpt lat="42.89529" lon="0.08298">
        <ele>1533.84</ele>
        <time>2018-04-05T06:31:45Z</time>
      </trkpt>
      <trkpt lat="42.89515" lon="0.08317">
        <ele>1527.82</ele>
        <time>2018-04-05T06:31:59Z</time>
      </trkpt>
      <trkpt lat="42.89498" lon="0.08326">
        <ele>1525.61</ele>
        <time>2018-04-05T06:32:14Z</time>
      </trkpt>
      <trkpt lat="42.89482" lon="0.0834">
        <ele>1523.8</ele>
        <time>2018-04-05T06:32:28Z</time>
      </trkpt>
      <trkpt lat="42.89469" lon="0.08322">
        <ele>1522.83</ele>
        <time>2018-04-05T06:32:50Z</time>
      </trkpt>
      <trkpt lat="42.89465" lon="0.08298">
        <ele>1522.52</ele>
        <time>2018-04-05T06:33:04Z</time>
      </trkpt>
      <trkpt lat="42.89449" lon="0.08283">
        <ele>1521.61</ele>
        <time>2018-04-05T06:33:20Z</time>
      </trkpt>
      <trkpt lat="42.8943" lon="0.08277">
        <ele>1521.53</ele>
        <time>2018-04-05T06:33:31Z</time>
      </trkpt>
      <trkpt lat="42.89412" lon="0.08273">
        <ele>1518.64</ele>
        <time>2018-04-05T06:33:45Z</time>
      </trkpt>
      <trkpt lat="42.89395" lon="0.08263">
        <ele>1517.29</ele>
        <time>2018-04-05T06:33:59Z</time>
      </trkpt>
      <trkpt lat="42.89392" lon="0.08238">
        <ele>1514.91</ele>
        <time>2018-04-05T06:34:18Z</time>
      </trkpt>
      <trkpt lat="42.89396" lon="0.08213">
        <ele>1516.52</ele>
        <time>2018-04-05T06:34:34Z</time>
      </trkpt>
      <trkpt lat="42.89405" lon="0.0819">
        <ele>1517.82</ele>
        <time>2018-04-05T06:34:52Z</time>
      </trkpt>
      <trkpt lat="42.89415" lon="0.08168">
        <ele>1515.62</ele>
        <time>2018-04-05T06:35:09Z</time>
      </trkpt>
      <trkpt lat="42.89415" lon="0.08143">
        <ele>1514.53</ele>
        <time>2018-04-05T06:35:30Z</time>
      </trkpt>
      <trkpt lat="42.894" lon="0.08128">
        <ele>1513.34</ele>
        <time>2018-04-05T06:35:54Z</time>
      </trkpt>
      <trkpt lat="42.89381" lon="0.08127">
        <ele>1513.52</ele>
        <time>2018-04-05T06:36:21Z</time>
      </trkpt>
      <trkpt lat="42.89365" lon="0.08136">
        <ele>1519.43</ele>
        <time>2018-04-05T06:36:46Z</time>
      </trkpt>
      <trkpt lat="42.89347" lon="0.08145">
        <ele>1519.55</ele>
        <time>2018-04-05T06:37:10Z</time>
      </trkpt>
      <trkpt lat="42.8933" lon="0.08153">
        <ele>1525.72</ele>
        <time>2018-04-05T06:37:34Z</time>
      </trkpt>
      <trkpt lat="42.89313" lon="0.08162">
        <ele>1527.43</ele>
        <time>2018-04-05T06:38:00Z</time>
      </trkpt>
      <trkpt lat="42.89296" lon="0.0817">
        <ele>1529.6</ele>
        <time>2018-04-05T06:38:20Z</time>
      </trkpt>
      <trkpt lat="42.89278" lon="0.08171">
        <ele>1532.24</ele>
        <time>2018-04-05T06:38:41Z</time>
      </trkpt>
      <trkpt lat="42.89259" lon="0.08171">
        <ele>1534.5</ele>
        <time>2018-04-05T06:39:09Z</time>
      </trkpt>
      <trkpt lat="42.89243" lon="0.08183">
        <ele>1538.4</ele>
        <time>2018-04-05T06:39:30Z</time>
      </trkpt>
      <trkpt lat="42.89228" lon="0.08195">
        <ele>1542.52</ele>
        <time>2018-04-05T06:39:55Z</time>
      </trkpt>
      <trkpt lat="42.89212" lon="0.08208">
        <ele>1546.22</ele>
        <time>2018-04-05T06:40:19Z</time>
      </trkpt>
      <trkpt lat="42.89196" lon="0.0822">
        <ele>1547.55</ele>
        <time>2018-04-05T06:40:40Z</time>
      </trkpt>
      <trkpt lat="42.89179" lon="0.08231">
        <ele>1550.53</ele>
        <time>2018-04-05T06:41:00Z</time>
      </trkpt>
      <trkpt lat="42.89164" lon="0.08244">
        <ele>1551.49</ele>
        <time>2018-04-05T06:41:21Z</time>
      </trkpt>
      <trkpt lat="42.89147" lon="0.08256">
        <ele>1553.31</ele>
        <time>2018-04-05T06:41:46Z</time>
      </trkpt>
      <trkpt lat="42.8913" lon="0.08262">
        <ele>1553.52</ele>
        <time>2018-04-05T06:42:09Z</time>
      </trkpt>
      <trkpt lat="42.89111" lon="0.08268">
        <ele>1555.22</ele>
        <time>2018-04-05T06:42:28Z</time>
      </trkpt>
      <trkpt lat="42.89093" lon="0.08275">
        <ele>1559.49</ele>
        <time>2018-04-05T06:42:53Z</time>
      </trkpt>
      <trkpt lat="42.89074" lon="0.0828">
        <ele>1560.52</ele>
        <time>2018-04-05T06:43:17Z</time>
      </trkpt>
      <trkpt lat="42.89057" lon="0.08288">
        <ele>1560.53</ele>
        <time>2018-04-05T06:43:38Z</time>
      </trkpt>
      <trkpt lat="42.89037" lon="0.08289">
        <ele>1563.22</ele>
        <time>2018-04-05T06:44:04Z</time>
      </trkpt>
      <trkpt lat="42.89019" lon="0.08294">
        <ele>1563.73</ele>
        <time>2018-04-05T06:44:20Z</time>
      </trkpt>
      <trkpt lat="42.89" lon="0.08296">
        <ele>1564.52</ele>
        <time>2018-04-05T06:44:37Z</time>
      </trkpt>
      <trkpt lat="42.88983" lon="0.08304">
        <ele>1566.52</ele>
        <time>2018-04-05T06:44:56Z</time>
      </trkpt>
      <trkpt lat="42.88964" lon="0.08309">
        <ele>1565.43</ele>
        <time>2018-04-05T06:45:24Z</time>
      </trkpt>
      <trkpt lat="42.88946" lon="0.08316">
        <ele>1565.44</ele>
        <time>2018-04-05T06:45:42Z</time>
      </trkpt>
      <trkpt lat="42.88928" lon="0.08316">
        <ele>1565.81</ele>
        <time>2018-04-05T06:46:01Z</time>
      </trkpt>
      <trkpt lat="42.8891" lon="0.08316">
        <ele>1567.45</ele>
        <time>2018-04-05T06:46:18Z</time>
      </trkpt>
      <trkpt lat="42.88892" lon="0.08313">
        <ele>1567.52</ele>
        <time>2018-04-05T06:46:34Z</time>
      </trkpt>
      <trkpt lat="42.88873" lon="0.08308">
        <ele>1570.52</ele>
        <time>2018-04-05T06:46:52Z</time>
      </trkpt>
      <trkpt lat="42.88854" lon="0.08312">
        <ele>1571.43</ele>
        <time>2018-04-05T06:47:20Z</time>
      </trkpt>
      <trkpt lat="42.88839" lon="0.08328">
        <ele>1571.13</ele>
        <time>2018-04-05T06:47:37Z</time>
      </trkpt>
      <trkpt lat="42.88824" lon="0.08343">
        <ele>1570.31</ele>
        <time>2018-04-05T06:47:56Z</time>
      </trkpt>
      <trkpt lat="42.88806" lon="0.08342">
        <ele>1575.51</ele>
        <time>2018-04-05T06:48:41Z</time>
      </trkpt>
      <trkpt lat="42.88788" lon="0.08343">
        <ele>1574.8</ele>
        <time>2018-04-05T06:49:00Z</time>
      </trkpt>
      <trkpt lat="42.88769" lon="0.0834">
        <ele>1561.56</ele>
        <time>2018-04-05T06:50:07Z</time>
      </trkpt>
      <trkpt lat="42.8875" lon="0.08346">
        <ele>1565.52</ele>
        <time>2018-04-05T06:50:34Z</time>
      </trkpt>
      <trkpt lat="42.88732" lon="0.08347">
        <ele>1572.49</ele>
        <time>2018-04-05T06:51:13Z</time>
      </trkpt>
      <trkpt lat="42.88715" lon="0.08338">
        <ele>1573.34</ele>
        <time>2018-04-05T06:51:41Z</time>
      </trkpt>
      <trkpt lat="42.88696" lon="0.08334">
        <ele>1576.81</ele>
        <time>2018-04-05T06:52:01Z</time>
      </trkpt>
      <trkpt lat="42.8868" lon="0.08323">
        <ele>1575.82</ele>
        <time>2018-04-05T06:52:22Z</time>
      </trkpt>
      <trkpt lat="42.8867" lon="0.08301">
        <ele>1580.4</ele>
        <time>2018-04-05T06:52:49Z</time>
      </trkpt>
      <trkpt lat="42.88652" lon="0.08299">
        <ele>1573.55</ele>
        <time>2018-04-05T06:57:57Z</time>
      </trkpt>
      <trkpt lat="42.88635" lon="0.08293">
        <ele>1573.52</ele>
        <time>2018-04-05T06:58:15Z</time>
      </trkpt>
      <trkpt lat="42.88616" lon="0.08292">
        <ele>1571.52</ele>
        <time>2018-04-05T06:58:34Z</time>
      </trkpt>
      <trkpt lat="42.88597" lon="0.08289">
        <ele>1567.71</ele>
        <time>2018-04-05T06:58:54Z</time>
      </trkpt>
      <trkpt lat="42.8858" lon="0.08283">
        <ele>1565.52</ele>
        <time>2018-04-05T06:59:13Z</time>
      </trkpt>
      <trkpt lat="42.88563" lon="0.08276">
        <ele>1566.49</ele>
        <time>2018-04-05T06:59:35Z</time>
      </trkpt>
      <trkpt lat="42.88544" lon="0.08269">
        <ele>1567.46</ele>
        <time>2018-04-05T06:59:56Z</time>
      </trkpt>
      <trkpt lat="42.88526" lon="0.08264">
        <ele>1566.53</ele>
        <time>2018-04-05T07:00:18Z</time>
      </trkpt>
      <trkpt lat="42.88511" lon="0.08252">
        <ele>1567.52</ele>
        <time>2018-04-05T07:00:38Z</time>
      </trkpt>
      <trkpt lat="42.88494" lon="0.08241">
        <ele>1568.58</ele>
        <time>2018-04-05T07:00:58Z</time>
      </trkpt>
      <trkpt lat="42.88476" lon="0.08233">
        <ele>1567.53</ele>
        <time>2018-04-05T07:01:18Z</time>
      </trkpt>
      <trkpt lat="42.88459" lon="0.08226">
        <ele>1567.55</ele>
        <time>2018-04-05T07:01:40Z</time>
      </trkpt>
      <trkpt lat="42.8844" lon="0.08221">
        <ele>1570.43</ele>
        <time>2018-04-05T07:02:04Z</time>
      </trkpt>
      <trkpt lat="42.88422" lon="0.08219">
        <ele>1577.19</ele>
        <time>2018-04-05T07:02:25Z</time>
      </trkpt>
      <trkpt lat="42.88404" lon="0.08211">
        <ele>1582.49</ele>
        <time>2018-04-05T07:02:53Z</time>
      </trkpt>
      <trkpt lat="42.88386" lon="0.08216">
        <ele>1587.51</ele>
        <time>2018-04-05T07:03:15Z</time>
      </trkpt>
      <trkpt lat="42.88367" lon="0.08217">
        <ele>1589.52</ele>
        <time>2018-04-05T07:03:37Z</time>
      </trkpt>
      <trkpt lat="42.88349" lon="0.08215">
        <ele>1593.49</ele>
        <time>2018-04-05T07:03:57Z</time>
      </trkpt>
      <trkpt lat="42.88331" lon="0.08214">
        <ele>1597.21</ele>
        <time>2018-04-05T07:04:20Z</time>
      </trkpt>
      <trkpt lat="42.88312" lon="0.08216">
        <ele>1597.52</ele>
        <time>2018-04-05T07:04:40Z</time>
      </trkpt>
      <trkpt lat="42.88294" lon="0.08216">
        <ele>1598.51</ele>
        <time>2018-04-05T07:04:59Z</time>
      </trkpt>
      <trkpt lat="42.88275" lon="0.08216">
        <ele>1599.5</ele>
        <time>2018-04-05T07:05:24Z</time>
      </trkpt>
      <trkpt lat="42.88257" lon="0.08218">
        <ele>1602.43</ele>
        <time>2018-04-05T07:05:45Z</time>
      </trkpt>
      <trkpt lat="42.88239" lon="0.08221">
        <ele>1600.64</ele>
        <time>2018-04-05T07:06:07Z</time>
      </trkpt>
      <trkpt lat="42.88221" lon="0.08225">
        <ele>1600.61</ele>
        <time>2018-04-05T07:06:27Z</time>
      </trkpt>
      <trkpt lat="42.88203" lon="0.08218">
        <ele>1602.44</ele>
        <time>2018-04-05T07:06:50Z</time>
      </trkpt>
      <trkpt lat="42.88185" lon="0.08213">
        <ele>1603.25</ele>
        <time>2018-04-05T07:07:13Z</time>
      </trkpt>
      <trkpt lat="42.88166" lon="0.08211">
        <ele>1605.55</ele>
        <time>2018-04-05T07:07:36Z</time>
      </trkpt>
      <trkpt lat="42.88151" lon="0.08225">
        <ele>1607.52</ele>
        <time>2018-04-05T07:07:58Z</time>
      </trkpt>
      <trkpt lat="42.88132" lon="0.08222">
        <ele>1609.54</ele>
        <time>2018-04-05T07:08:18Z</time>
      </trkpt>
      <trkpt lat="42.88114" lon="0.08222">
        <ele>1608.31</ele>
        <time>2018-04-05T07:08:40Z</time>
      </trkpt>
      <trkpt lat="42.88096" lon="0.08227">
        <ele>1610.22</ele>
        <time>2018-04-05T07:09:00Z</time>
      </trkpt>
      <trkpt lat="42.88082" lon="0.08242">
        <ele>1612.52</ele>
        <time>2018-04-05T07:09:23Z</time>
      </trkpt>
      <trkpt lat="42.88064" lon="0.0825">
        <ele>1615.52</ele>
        <time>2018-04-05T07:09:45Z</time>
      </trkpt>
      <trkpt lat="42.88047" lon="0.08261">
        <ele>1615.52</ele>
        <time>2018-04-05T07:10:09Z</time>
      </trkpt>
      <trkpt lat="42.88029" lon="0.08268">
        <ele>1620.49</ele>
        <time>2018-04-05T07:10:33Z</time>
      </trkpt>
      <trkpt lat="42.88013" lon="0.0828">
        <ele>1621.46</ele>
        <time>2018-04-05T07:10:55Z</time>
      </trkpt>
      <trkpt lat="42.87996" lon="0.08292">
        <ele>1624.5</ele>
        <time>2018-04-05T07:11:16Z</time>
      </trkpt>
      <trkpt lat="42.87978" lon="0.08299">
        <ele>1625.43</ele>
        <time>2018-04-05T07:11:40Z</time>
      </trkpt>
      <trkpt lat="42.87959" lon="0.08299">
        <ele>1628.52</ele>
        <time>2018-04-05T07:12:02Z</time>
      </trkpt>
      <trkpt lat="42.87945" lon="0.08283">
        <ele>1628.52</ele>
        <time>2018-04-05T07:12:24Z</time>
      </trkpt>
      <trkpt lat="42.87926" lon="0.08281">
        <ele>1629.53</ele>
        <time>2018-04-05T07:12:45Z</time>
      </trkpt>
      <trkpt lat="42.87909" lon="0.0829">
        <ele>1632.45</ele>
        <time>2018-04-05T07:13:04Z</time>
      </trkpt>
      <trkpt lat="42.87893" lon="0.08302">
        <ele>1633.52</ele>
        <time>2018-04-05T07:13:21Z</time>
      </trkpt>
      <trkpt lat="42.87876" lon="0.08311">
        <ele>1630.81</ele>
        <time>2018-04-05T07:13:40Z</time>
      </trkpt>
      <trkpt lat="42.87859" lon="0.08321">
        <ele>1630.5</ele>
        <time>2018-04-05T07:14:02Z</time>
      </trkpt>
      <trkpt lat="42.87845" lon="0.08337">
        <ele>1631.52</ele>
        <time>2018-04-05T07:14:23Z</time>
      </trkpt>
      <trkpt lat="42.8783" lon="0.08352">
        <ele>1631.52</ele>
        <time>2018-04-05T07:14:42Z</time>
      </trkpt>
      <trkpt lat="42.87813" lon="0.08362">
        <ele>1633.49</ele>
        <time>2018-04-05T07:15:01Z</time>
      </trkpt>
      <trkpt lat="42.87796" lon="0.08372">
        <ele>1636.41</ele>
        <time>2018-04-05T07:15:22Z</time>
      </trkpt>
      <trkpt lat="42.87778" lon="0.0838">
        <ele>1637.52</ele>
        <time>2018-04-05T07:15:43Z</time>
      </trkpt>
      <trkpt lat="42.87761" lon="0.08389">
        <ele>1636.52</ele>
        <time>2018-04-05T07:16:03Z</time>
      </trkpt>
      <trkpt lat="42.87742" lon="0.08393">
        <ele>1638.44</ele>
        <time>2018-04-05T07:16:22Z</time>
      </trkpt>
      <trkpt lat="42.87724" lon="0.084">
        <ele>1639.53</ele>
        <time>2018-04-05T07:16:41Z</time>
      </trkpt>
      <trkpt lat="42.87705" lon="0.08401">
        <ele>1640.46</ele>
        <time>2018-04-05T07:17:00Z</time>
      </trkpt>
      <trkpt lat="42.87687" lon="0.08403">
        <ele>1639.74</ele>
        <time>2018-04-05T07:17:18Z</time>
      </trkpt>
      <trkpt lat="42.87668" lon="0.08406">
        <ele>1642.51</ele>
        <time>2018-04-05T07:17:41Z</time>
      </trkpt>
      <trkpt lat="42.87651" lon="0.08413">
        <ele>1641.5</ele>
        <time>2018-04-05T07:18:01Z</time>
      </trkpt>
      <trkpt lat="42.87633" lon="0.08423">
        <ele>1644.21</ele>
        <time>2018-04-05T07:18:22Z</time>
      </trkpt>
      <trkpt lat="42.87615" lon="0.08426">
        <ele>1650.82</ele>
        <time>2018-04-05T07:18:43Z</time>
      </trkpt>
      <trkpt lat="42.87597" lon="0.08429">
        <ele>1652.55</ele>
        <time>2018-04-05T07:19:03Z</time>
      </trkpt>
      <trkpt lat="42.87578" lon="0.08433">
        <ele>1651.46</ele>
        <time>2018-04-05T07:19:33Z</time>
      </trkpt>
      <trkpt lat="42.87561" lon="0.08438">
        <ele>1651.52</ele>
        <time>2018-04-05T07:19:53Z</time>
      </trkpt>
      <trkpt lat="42.87546" lon="0.08452">
        <ele>1651.23</ele>
        <time>2018-04-05T07:20:13Z</time>
      </trkpt>
      <trkpt lat="42.87532" lon="0.08469">
        <ele>1649.52</ele>
        <time>2018-04-05T07:20:36Z</time>
      </trkpt>
      <trkpt lat="42.87515" lon="0.08478">
        <ele>1647.52</ele>
        <time>2018-04-05T07:20:57Z</time>
      </trkpt>
      <trkpt lat="42.87505" lon="0.085">
        <ele>1650.42</ele>
        <time>2018-04-05T07:21:19Z</time>
      </trkpt>
      <trkpt lat="42.87489" lon="0.08512">
        <ele>1652.31</ele>
        <time>2018-04-05T07:21:39Z</time>
      </trkpt>
      <trkpt lat="42.87472" lon="0.08516">
        <ele>1653.52</ele>
        <time>2018-04-05T07:21:58Z</time>
      </trkpt>
      <trkpt lat="42.87453" lon="0.08517">
        <ele>1656.22</ele>
        <time>2018-04-05T07:22:21Z</time>
      </trkpt>
      <trkpt lat="42.87436" lon="0.08522">
        <ele>1656.49</ele>
        <time>2018-04-05T07:22:41Z</time>
      </trkpt>
      <trkpt lat="42.87419" lon="0.08533">
        <ele>1657.52</ele>
        <time>2018-04-05T07:22:59Z</time>
      </trkpt>
      <trkpt lat="42.87404" lon="0.08547">
        <ele>1660.44</ele>
        <time>2018-04-05T07:23:27Z</time>
      </trkpt>
      <trkpt lat="42.8739" lon="0.08564">
        <ele>1661.54</ele>
        <time>2018-04-05T07:23:52Z</time>
      </trkpt>
      <trkpt lat="42.87373" lon="0.08552">
        <ele>1667.92</ele>
        <time>2018-04-05T07:24:19Z</time>
      </trkpt>
      <trkpt lat="42.8736" lon="0.08573">
        <ele>1672.52</ele>
        <time>2018-04-05T07:24:49Z</time>
      </trkpt>
      <trkpt lat="42.87346" lon="0.08589">
        <ele>1673.52</ele>
        <time>2018-04-05T07:25:13Z</time>
      </trkpt>
      <trkpt lat="42.8733" lon="0.08602">
        <ele>1674.52</ele>
        <time>2018-04-05T07:25:35Z</time>
      </trkpt>
      <trkpt lat="42.87314" lon="0.08615">
        <ele>1680.43</ele>
        <time>2018-04-05T07:25:59Z</time>
      </trkpt>
      <trkpt lat="42.87295" lon="0.08613">
        <ele>1686.52</ele>
        <time>2018-04-05T07:26:24Z</time>
      </trkpt>
      <trkpt lat="42.87279" lon="0.08601">
        <ele>1686.61</ele>
        <time>2018-04-05T07:26:45Z</time>
      </trkpt>
      <trkpt lat="42.87261" lon="0.08597">
        <ele>1690.43</ele>
        <time>2018-04-05T07:27:05Z</time>
      </trkpt>
      <trkpt lat="42.87243" lon="0.08603">
        <ele>1691.51</ele>
        <time>2018-04-05T07:27:28Z</time>
      </trkpt>
      <trkpt lat="42.87227" lon="0.08614">
        <ele>1691.52</ele>
        <time>2018-04-05T07:27:50Z</time>
      </trkpt>
      <trkpt lat="42.87208" lon="0.0861">
        <ele>1694.46</ele>
        <time>2018-04-05T07:28:29Z</time>
      </trkpt>
      <trkpt lat="42.8719" lon="0.08616">
        <ele>1701.49</ele>
        <time>2018-04-05T07:28:57Z</time>
      </trkpt>
      <trkpt lat="42.87173" lon="0.08626">
        <ele>1706.76</ele>
        <time>2018-04-05T07:29:29Z</time>
      </trkpt>
      <trkpt lat="42.87156" lon="0.08631">
        <ele>1708.52</ele>
        <time>2018-04-05T07:29:57Z</time>
      </trkpt>
      <trkpt lat="42.87137" lon="0.08633">
        <ele>1712.92</ele>
        <time>2018-04-05T07:30:33Z</time>
      </trkpt>
      <trkpt lat="42.87127" lon="0.08611">
        <ele>1721.22</ele>
        <time>2018-04-05T07:31:28Z</time>
      </trkpt>
      <trkpt lat="42.87108" lon="0.08613">
        <ele>1728.41</ele>
        <time>2018-04-05T07:32:01Z</time>
      </trkpt>
      <trkpt lat="42.8709" lon="0.08621">
        <ele>1729.52</ele>
        <time>2018-04-05T07:32:33Z</time>
      </trkpt>
      <trkpt lat="42.87073" lon="0.08611">
        <ele>1735.73</ele>
        <time>2018-04-05T07:33:21Z</time>
      </trkpt>
      <trkpt lat="42.87055" lon="0.0862">
        <ele>1742.52</ele>
        <time>2018-04-05T07:34:00Z</time>
      </trkpt>
      <trkpt lat="42.87039" lon="0.08631">
        <ele>1750.21</ele>
        <time>2018-04-05T07:34:30Z</time>
      </trkpt>
      <trkpt lat="42.87025" lon="0.08615">
        <ele>1754.52</ele>
        <time>2018-04-05T07:35:48Z</time>
      </trkpt>
      <trkpt lat="42.87008" lon="0.08623">
        <ele>1757.53</ele>
        <time>2018-04-05T07:36:33Z</time>
      </trkpt>
      <trkpt lat="42.86992" lon="0.08637">
        <ele>1764.92</ele>
        <time>2018-04-05T07:37:08Z</time>
      </trkpt>
      <trkpt lat="42.86974" lon="0.08635">
        <ele>1780.49</ele>
        <time>2018-04-05T07:38:26Z</time>
      </trkpt>
      <trkpt lat="42.86964" lon="0.08614">
        <ele>1790.49</ele>
        <time>2018-04-05T07:39:51Z</time>
      </trkpt>
      <trkpt lat="42.86949" lon="0.08628">
        <ele>1795.22</ele>
        <time>2018-04-05T07:40:36Z</time>
      </trkpt>
      <trkpt lat="42.86945" lon="0.08605">
        <ele>1804.93</ele>
        <time>2018-04-05T07:41:13Z</time>
      </trkpt>
      <trkpt lat="42.86927" lon="0.08611">
        <ele>1808.52</ele>
        <time>2018-04-05T07:42:24Z</time>
      </trkpt>
      <trkpt lat="42.8691" lon="0.08601">
        <ele>1821.52</ele>
        <time>2018-04-05T07:44:01Z</time>
      </trkpt>
      <trkpt lat="42.86894" lon="0.08614">
        <ele>1826.51</ele>
        <time>2018-04-05T07:44:33Z</time>
      </trkpt>
      <trkpt lat="42.86877" lon="0.08626">
        <ele>1833.52</ele>
        <time>2018-04-05T07:45:15Z</time>
      </trkpt>
      <trkpt lat="42.86869" lon="0.08648">
        <ele>1844.22</ele>
        <time>2018-04-05T07:50:27Z</time>
      </trkpt>
      <trkpt lat="42.86851" lon="0.08654">
        <ele>1845.61</ele>
        <time>2018-04-05T07:53:14Z</time>
      </trkpt>
      <trkpt lat="42.86836" lon="0.08669">
        <ele>1849.43</ele>
        <time>2018-04-05T07:53:46Z</time>
      </trkpt>
      <trkpt lat="42.86822" lon="0.08686">
        <ele>1854.19</ele>
        <time>2018-04-05T07:54:13Z</time>
      </trkpt>
      <trkpt lat="42.86805" lon="0.08695">
        <ele>1854.34</ele>
        <time>2018-04-05T07:54:41Z</time>
      </trkpt>
      <trkpt lat="42.86789" lon="0.08705">
        <ele>1860.49</ele>
        <time>2018-04-05T07:55:14Z</time>
      </trkpt>
      <trkpt lat="42.86771" lon="0.0871">
        <ele>1864.61</ele>
        <time>2018-04-05T07:55:44Z</time>
      </trkpt>
      <trkpt lat="42.86753" lon="0.08707">
        <ele>1870.31</ele>
        <time>2018-04-05T07:56:13Z</time>
      </trkpt>
      <trkpt lat="42.86736" lon="0.08717">
        <ele>1875.52</ele>
        <time>2018-04-05T07:56:45Z</time>
      </trkpt>
      <trkpt lat="42.86725" lon="0.08737">
        <ele>1881.22</ele>
        <time>2018-04-05T07:57:12Z</time>
      </trkpt>
      <trkpt lat="42.86707" lon="0.08745">
        <ele>1885.42</ele>
        <time>2018-04-05T07:57:39Z</time>
      </trkpt>
      <trkpt lat="42.86689" lon="0.08748">
        <ele>1891.81</ele>
        <time>2018-04-05T07:58:10Z</time>
      </trkpt>
      <trkpt lat="42.86671" lon="0.08742">
        <ele>1899.42</ele>
        <time>2018-04-05T07:58:45Z</time>
      </trkpt>
      <trkpt lat="42.86653" lon="0.08743">
        <ele>1905.43</ele>
        <time>2018-04-05T07:59:19Z</time>
      </trkpt>
      <trkpt lat="42.86636" lon="0.08751">
        <ele>1914.2</ele>
        <time>2018-04-05T07:59:47Z</time>
      </trkpt>
      <trkpt lat="42.86621" lon="0.08765">
        <ele>1918.58</ele>
        <time>2018-04-05T08:00:24Z</time>
      </trkpt>
      <trkpt lat="42.86609" lon="0.08784">
        <ele>1925.52</ele>
        <time>2018-04-05T08:00:59Z</time>
      </trkpt>
      <trkpt lat="42.86597" lon="0.08803">
        <ele>1931.49</ele>
        <time>2018-04-05T08:01:31Z</time>
      </trkpt>
      <trkpt lat="42.86586" lon="0.08825">
        <ele>1940.22</ele>
        <time>2018-04-05T08:02:08Z</time>
      </trkpt>
      <trkpt lat="42.86568" lon="0.08824">
        <ele>1942.52</ele>
        <time>2018-04-05T08:03:15Z</time>
      </trkpt>
      <trkpt lat="42.86567" lon="0.08849">
        <ele>1951.92</ele>
        <time>2018-04-05T08:03:54Z</time>
      </trkpt>
      <trkpt lat="42.86571" lon="0.08873">
        <ele>1958.46</ele>
        <time>2018-04-05T08:04:28Z</time>
      </trkpt>
      <trkpt lat="42.86552" lon="0.08874">
        <ele>1965.52</ele>
        <time>2018-04-05T08:05:26Z</time>
      </trkpt>
      <trkpt lat="42.86536" lon="0.08863">
        <ele>1973.43</ele>
        <time>2018-04-05T08:05:56Z</time>
      </trkpt>
      <trkpt lat="42.86538" lon="0.08888">
        <ele>1980.41</ele>
        <time>2018-04-05T08:06:39Z</time>
      </trkpt>
      <trkpt lat="42.86541" lon="0.08913">
        <ele>1989.22</ele>
        <time>2018-04-05T08:07:15Z</time>
      </trkpt>
      <trkpt lat="42.86538" lon="0.08938">
        <ele>1992.23</ele>
        <time>2018-04-05T08:07:53Z</time>
      </trkpt>
      <trkpt lat="42.8653" lon="0.0896">
        <ele>1997.11</ele>
        <time>2018-04-05T08:08:26Z</time>
      </trkpt>
      <trkpt lat="42.8652" lon="0.08982">
        <ele>2002.22</ele>
        <time>2018-04-05T08:09:05Z</time>
      </trkpt>
      <trkpt lat="42.86506" lon="0.08997">
        <ele>2009.22</ele>
        <time>2018-04-05T08:09:41Z</time>
      </trkpt>
      <trkpt lat="42.8649" lon="0.0901">
        <ele>2019.52</ele>
        <time>2018-04-05T08:10:22Z</time>
      </trkpt>
      <trkpt lat="42.86472" lon="0.09017">
        <ele>2025.28</ele>
        <time>2018-04-05T08:10:54Z</time>
      </trkpt>
      <trkpt lat="42.86464" lon="0.08994">
        <ele>2023.21</ele>
        <time>2018-04-05T08:11:34Z</time>
      </trkpt>
      <trkpt lat="42.86447" lon="0.09004">
        <ele>2030.51</ele>
        <time>2018-04-05T08:12:04Z</time>
      </trkpt>
      <trkpt lat="42.86435" lon="0.08986">
        <ele>2034.52</ele>
        <time>2018-04-05T08:12:36Z</time>
      </trkpt>
      <trkpt lat="42.86416" lon="0.08986">
        <ele>2041.49</ele>
        <time>2018-04-05T08:13:05Z</time>
      </trkpt>
      <trkpt lat="42.86399" lon="0.08994">
        <ele>2050.52</ele>
        <time>2018-04-05T08:13:41Z</time>
      </trkpt>
      <trkpt lat="42.86384" lon="0.08979">
        <ele>2052.74</ele>
        <time>2018-04-05T08:14:17Z</time>
      </trkpt>
      <trkpt lat="42.86375" lon="0.08958">
        <ele>2054.32</ele>
        <time>2018-04-05T08:14:53Z</time>
      </trkpt>
      <trkpt lat="42.86361" lon="0.08975">
        <ele>2070.12</ele>
        <time>2018-04-05T08:15:36Z</time>
      </trkpt>
      <trkpt lat="42.86346" lon="0.08989">
        <ele>2082.22</ele>
        <time>2018-04-05T08:16:48Z</time>
      </trkpt>
      <trkpt lat="42.86328" lon="0.08994">
        <ele>2090.4</ele>
        <time>2018-04-05T08:18:55Z</time>
      </trkpt>
      <trkpt lat="42.8631" lon="0.08995">
        <ele>2095.61</ele>
        <time>2018-04-05T08:20:10Z</time>
      </trkpt>
      <trkpt lat="42.86292" lon="0.08997">
        <ele>2104.22</ele>
        <time>2018-04-05T08:21:09Z</time>
      </trkpt>
      <trkpt lat="42.86274" lon="0.09">
        <ele>2109.25</ele>
        <time>2018-04-05T08:21:44Z</time>
      </trkpt>
      <trkpt lat="42.86256" lon="0.09">
        <ele>2110.55</ele>
        <time>2018-04-05T08:22:19Z</time>
      </trkpt>
      <trkpt lat="42.86237" lon="0.08997">
        <ele>2113.22</ele>
        <time>2018-04-05T08:22:44Z</time>
      </trkpt>
      <trkpt lat="42.8622" lon="0.09003">
        <ele>2120.49</ele>
        <time>2018-04-05T08:23:18Z</time>
      </trkpt>
      <trkpt lat="42.86205" lon="0.09017">
        <ele>2128.52</ele>
        <time>2018-04-05T08:23:51Z</time>
      </trkpt>
      <trkpt lat="42.86189" lon="0.09032">
        <ele>2136.52</ele>
        <time>2018-04-05T08:24:28Z</time>
      </trkpt>
      <trkpt lat="42.86173" lon="0.09045">
        <ele>2138.22</ele>
        <time>2018-04-05T08:25:04Z</time>
      </trkpt>
      <trkpt lat="42.86156" lon="0.09053">
        <ele>2145.21</ele>
        <time>2018-04-05T08:25:42Z</time>
      </trkpt>
      <trkpt lat="42.8614" lon="0.09065">
        <ele>2154.71</ele>
        <time>2018-04-05T08:26:30Z</time>
      </trkpt>
      <trkpt lat="42.86121" lon="0.09067">
        <ele>2156.61</ele>
        <time>2018-04-05T08:27:04Z</time>
      </trkpt>
      <trkpt lat="42.86103" lon="0.0907">
        <ele>2161.48</ele>
        <time>2018-04-05T08:27:37Z</time>
      </trkpt>
      <trkpt lat="42.86088" lon="0.09056">
        <ele>2162.61</ele>
        <time>2018-04-05T08:46:39Z</time>
      </trkpt>
      <trkpt lat="42.86075" lon="0.09037">
        <ele>2163.46</ele>
        <time>2018-04-05T08:46:57Z</time>
      </trkpt>
      <trkpt lat="42.86059" lon="0.09025">
        <ele>2167.58</ele>
        <time>2018-04-05T08:47:20Z</time>
      </trkpt>
      <trkpt lat="42.86043" lon="0.09012">
        <ele>2166.52</ele>
        <time>2018-04-05T08:47:43Z</time>
      </trkpt>
      <trkpt lat="42.86034" lon="0.0899">
        <ele>2167.42</ele>
        <time>2018-04-05T08:48:13Z</time>
      </trkpt>
      <trkpt lat="42.86018" lon="0.09">
        <ele>2167.6</ele>
        <time>2018-04-05T08:48:41Z</time>
      </trkpt>
      <trkpt lat="42.86002" lon="0.09012">
        <ele>2172.22</ele>
        <time>2018-04-05T08:49:12Z</time>
      </trkpt>
      <trkpt lat="42.85983" lon="0.09018">
        <ele>2175.22</ele>
        <time>2018-04-05T08:49:43Z</time>
      </trkpt>
      <trkpt lat="42.85968" lon="0.09003">
        <ele>2173.54</ele>
        <time>2018-04-05T08:50:33Z</time>
      </trkpt>
      <trkpt lat="42.85957" lon="0.08982">
        <ele>2171.53</ele>
        <time>2018-04-05T08:50:42Z</time>
      </trkpt>
      <trkpt lat="42.85942" lon="0.08995">
        <ele>2162.64</ele>
        <time>2018-04-05T08:50:58Z</time>
      </trkpt>
      <trkpt lat="42.8594" lon="0.0902">
        <ele>2163.49</ele>
        <time>2018-04-05T08:51:22Z</time>
      </trkpt>
      <trkpt lat="42.85931" lon="0.09042">
        <ele>2164.52</ele>
        <time>2018-04-05T08:51:53Z</time>
      </trkpt>
      <trkpt lat="42.85916" lon="0.09057">
        <ele>2170.28</ele>
        <time>2018-04-05T08:52:17Z</time>
      </trkpt>
      <trkpt lat="42.85894" lon="0.09061">
        <ele>2167.64</ele>
        <time>2018-04-05T08:52:38Z</time>
      </trkpt>
      <trkpt lat="42.85878" lon="0.09072">
        <ele>2163.83</ele>
        <time>2018-04-05T08:52:55Z</time>
      </trkpt>
      <trkpt lat="42.85859" lon="0.0907">
        <ele>2161.59</ele>
        <time>2018-04-05T08:53:08Z</time>
      </trkpt>
      <trkpt lat="42.85848" lon="0.09046">
        <ele>2159.55</ele>
        <time>2018-04-05T08:53:17Z</time>
      </trkpt>
      <trkpt lat="42.85831" lon="0.09037">
        <ele>2158.54</ele>
        <time>2018-04-05T08:53:46Z</time>
      </trkpt>
      <trkpt lat="42.8582" lon="0.09057">
        <ele>2154.75</ele>
        <time>2018-04-05T08:54:31Z</time>
      </trkpt>
      <trkpt lat="42.8581" lon="0.09078">
        <ele>2158.52</ele>
        <time>2018-04-05T08:54:58Z</time>
      </trkpt>
      <trkpt lat="42.85796" lon="0.09094">
        <ele>2166.1</ele>
        <time>2018-04-05T08:55:29Z</time>
      </trkpt>
      <trkpt lat="42.85793" lon="0.09069">
        <ele>2172.52</ele>
        <time>2018-04-05T08:55:56Z</time>
      </trkpt>
      <trkpt lat="42.85775" lon="0.09075">
        <ele>2178.49</ele>
        <time>2018-04-05T08:56:37Z</time>
      </trkpt>
      <trkpt lat="42.8576" lon="0.09087">
        <ele>2184.49</ele>
        <time>2018-04-05T08:57:06Z</time>
      </trkpt>
      <trkpt lat="42.85743" lon="0.091">
        <ele>2186.43</ele>
        <time>2018-04-05T08:57:27Z</time>
      </trkpt>
      <trkpt lat="42.85731" lon="0.09118">
        <ele>2183.55</ele>
        <time>2018-04-05T08:57:53Z</time>
      </trkpt>
      <trkpt lat="42.85717" lon="0.09133">
        <ele>2184.52</ele>
        <time>2018-04-05T08:58:12Z</time>
      </trkpt>
      <trkpt lat="42.857" lon="0.09144">
        <ele>2186.54</ele>
        <time>2018-04-05T08:58:38Z</time>
      </trkpt>
      <trkpt lat="42.85685" lon="0.09157">
        <ele>2192.11</ele>
        <time>2018-04-05T08:59:06Z</time>
      </trkpt>
      <trkpt lat="42.85674" lon="0.09137">
        <ele>2200.49</ele>
        <time>2018-04-05T08:59:54Z</time>
      </trkpt>
      <trkpt lat="42.85657" lon="0.09149">
        <ele>2207.32</ele>
        <time>2018-04-05T09:00:37Z</time>
      </trkpt>
      <trkpt lat="42.85642" lon="0.09163">
        <ele>2204.89</ele>
        <time>2018-04-05T09:00:54Z</time>
      </trkpt>
      <trkpt lat="42.85627" lon="0.09178">
        <ele>2203.82</ele>
        <time>2018-04-05T09:01:12Z</time>
      </trkpt>
      <trkpt lat="42.85615" lon="0.09197">
        <ele>2202.46</ele>
        <time>2018-04-05T09:01:31Z</time>
      </trkpt>
      <trkpt lat="42.85603" lon="0.09216">
        <ele>2202.52</ele>
        <time>2018-04-05T09:01:56Z</time>
      </trkpt>
      <trkpt lat="42.85592" lon="0.09237">
        <ele>2203.49</ele>
        <time>2018-04-05T09:02:20Z</time>
      </trkpt>
      <trkpt lat="42.85582" lon="0.09258">
        <ele>2201.52</ele>
        <time>2018-04-05T09:02:40Z</time>
      </trkpt>
      <trkpt lat="42.85569" lon="0.09276">
        <ele>2200.52</ele>
        <time>2018-04-05T09:02:59Z</time>
      </trkpt>
      <trkpt lat="42.85556" lon="0.09293">
        <ele>2199.52</ele>
        <time>2018-04-05T09:03:19Z</time>
      </trkpt>
      <trkpt lat="42.85546" lon="0.09314">
        <ele>2204.43</ele>
        <time>2018-04-05T09:03:41Z</time>
      </trkpt>
      <trkpt lat="42.85536" lon="0.09335">
        <ele>2201.82</ele>
        <time>2018-04-05T09:04:06Z</time>
      </trkpt>
      <trkpt lat="42.85526" lon="0.09358">
        <ele>2203.52</ele>
        <time>2018-04-05T09:04:28Z</time>
      </trkpt>
      <trkpt lat="42.85519" lon="0.09381">
        <ele>2210.4</ele>
        <time>2018-04-05T09:04:51Z</time>
      </trkpt>
      <trkpt lat="42.85513" lon="0.09406">
        <ele>2212.8</ele>
        <time>2018-04-05T09:05:13Z</time>
      </trkpt>
      <trkpt lat="42.85506" lon="0.09428">
        <ele>2217.22</ele>
        <time>2018-04-05T09:05:42Z</time>
      </trkpt>
      <trkpt lat="42.85504" lon="0.09453">
        <ele>2223.42</ele>
        <time>2018-04-05T09:06:10Z</time>
      </trkpt>
      <trkpt lat="42.8549" lon="0.0947">
        <ele>2227.51</ele>
        <time>2018-04-05T09:06:39Z</time>
      </trkpt>
      <trkpt lat="42.85478" lon="0.09487">
        <ele>2234.61</ele>
        <time>2018-04-05T09:07:41Z</time>
      </trkpt>
      <trkpt lat="42.8546" lon="0.09495">
        <ele>2242.21</ele>
        <time>2018-04-05T09:08:14Z</time>
      </trkpt>
      <trkpt lat="42.8546" lon="0.0952">
        <ele>2248.81</ele>
        <time>2018-04-05T09:08:52Z</time>
      </trkpt>
      <trkpt lat="42.85458" lon="0.09545">
        <ele>2251.51</ele>
        <time>2018-04-05T09:09:22Z</time>
      </trkpt>
      <trkpt lat="42.85441" lon="0.09534">
        <ele>2250.52</ele>
        <time>2018-04-05T09:09:47Z</time>
      </trkpt>
      <trkpt lat="42.85431" lon="0.09513">
        <ele>2256.52</ele>
        <time>2018-04-05T09:10:16Z</time>
      </trkpt>
      <trkpt lat="42.85413" lon="0.09512">
        <ele>2264.43</ele>
        <time>2018-04-05T09:11:17Z</time>
      </trkpt>
      <trkpt lat="42.85398" lon="0.09529">
        <ele>2274.22</ele>
        <time>2018-04-05T09:12:12Z</time>
      </trkpt>
      <trkpt lat="42.85384" lon="0.09543">
        <ele>2278.42</ele>
        <time>2018-04-05T09:12:45Z</time>
      </trkpt>
      <trkpt lat="42.85368" lon="0.09556">
        <ele>2282.52</ele>
        <time>2018-04-05T09:13:15Z</time>
      </trkpt>
      <trkpt lat="42.8535" lon="0.0955">
        <ele>2286.43</ele>
        <time>2018-04-05T09:13:44Z</time>
      </trkpt>
      <trkpt lat="42.85356" lon="0.09573">
        <ele>2291.61</ele>
        <time>2018-04-05T09:14:23Z</time>
      </trkpt>
      <trkpt lat="42.85342" lon="0.0959">
        <ele>2299.52</ele>
        <time>2018-04-05T09:15:31Z</time>
      </trkpt>
      <trkpt lat="42.85333" lon="0.09612">
        <ele>2308.4</ele>
        <time>2018-04-05T09:16:06Z</time>
      </trkpt>
      <trkpt lat="42.85324" lon="0.09634">
        <ele>2317.22</ele>
        <time>2018-04-05T09:16:40Z</time>
      </trkpt>
      <trkpt lat="42.85317" lon="0.09657">
        <ele>2325.52</ele>
        <time>2018-04-05T09:17:12Z</time>
      </trkpt>
      <trkpt lat="42.85311" lon="0.09681">
        <ele>2331.53</ele>
        <time>2018-04-05T09:17:47Z</time>
      </trkpt>
      <trkpt lat="42.85306" lon="0.09705">
        <ele>2327.22</ele>
        <time>2018-04-05T09:18:27Z</time>
      </trkpt>
      <trkpt lat="42.85301" lon="0.09729">
        <ele>2331.73</ele>
        <time>2018-04-05T09:22:37Z</time>
      </trkpt>
      <trkpt lat="42.85292" lon="0.0975">
        <ele>2333.46</ele>
        <time>2018-04-05T09:22:56Z</time>
      </trkpt>
      <trkpt lat="42.85282" lon="0.09775">
        <ele>2335.82</ele>
        <time>2018-04-05T09:23:25Z</time>
      </trkpt>
      <trkpt lat="42.8527" lon="0.09795">
        <ele>2337.51</ele>
        <time>2018-04-05T09:23:44Z</time>
      </trkpt>
      <trkpt lat="42.85259" lon="0.09815">
        <ele>2335.64</ele>
        <time>2018-04-05T09:24:07Z</time>
      </trkpt>
      <trkpt lat="42.85248" lon="0.09837">
        <ele>2336.52</ele>
        <time>2018-04-05T09:24:25Z</time>
      </trkpt>
      <trkpt lat="42.85242" lon="0.09861">
        <ele>2337.44</ele>
        <time>2018-04-05T09:24:47Z</time>
      </trkpt>
      <trkpt lat="42.85235" lon="0.09884">
        <ele>2339.43</ele>
        <time>2018-04-05T09:25:09Z</time>
      </trkpt>
      <trkpt lat="42.85228" lon="0.09909">
        <ele>2334.55</ele>
        <time>2018-04-05T09:25:25Z</time>
      </trkpt>
      <trkpt lat="42.85218" lon="0.09931">
        <ele>2335.52</ele>
        <time>2018-04-05T09:25:41Z</time>
      </trkpt>
      <trkpt lat="42.85208" lon="0.09952">
        <ele>2334.61</ele>
        <time>2018-04-05T09:25:58Z</time>
      </trkpt>
      <trkpt lat="42.85201" lon="0.09976">
        <ele>2338.49</ele>
        <time>2018-04-05T09:26:17Z</time>
      </trkpt>
      <trkpt lat="42.85193" lon="0.09997">
        <ele>2342.52</ele>
        <time>2018-04-05T09:26:34Z</time>
      </trkpt>
      <trkpt lat="42.85181" lon="0.10017">
        <ele>2348.52</ele>
        <time>2018-04-05T09:26:57Z</time>
      </trkpt>
      <trkpt lat="42.8517" lon="0.10038">
        <ele>2350.82</ele>
        <time>2018-04-05T09:28:25Z</time>
      </trkpt>
      <trkpt lat="42.85156" lon="0.10054">
        <ele>2350.82</ele>
        <time>2018-04-05T09:28:44Z</time>
      </trkpt>
      <trkpt lat="42.85148" lon="0.10078">
        <ele>2346.44</ele>
        <time>2018-04-05T09:28:54Z</time>
      </trkpt>
      <trkpt lat="42.85143" lon="0.10102">
        <ele>2348.52</ele>
        <time>2018-04-05T09:29:12Z</time>
      </trkpt>
      <trkpt lat="42.85139" lon="0.10127">
        <ele>2350.43</ele>
        <time>2018-04-05T09:29:29Z</time>
      </trkpt>
      <trkpt lat="42.8513" lon="0.10149">
        <ele>2350.52</ele>
        <time>2018-04-05T09:29:45Z</time>
      </trkpt>
      <trkpt lat="42.85123" lon="0.10171">
        <ele>2350.43</ele>
        <time>2018-04-05T09:30:04Z</time>
      </trkpt>
      <trkpt lat="42.85114" lon="0.10193">
        <ele>2352.73</ele>
        <time>2018-04-05T09:30:29Z</time>
      </trkpt>
      <trkpt lat="42.85115" lon="0.10218">
        <ele>2352.52</ele>
        <time>2018-04-05T09:31:01Z</time>
      </trkpt>
      <trkpt lat="42.85113" lon="0.10243">
        <ele>2353.52</ele>
        <time>2018-04-05T09:31:32Z</time>
      </trkpt>
      <trkpt lat="42.85094" lon="0.1025">
        <ele>2357.25</ele>
        <time>2018-04-05T09:31:59Z</time>
      </trkpt>
      <trkpt lat="42.85085" lon="0.10272">
        <ele>2365.52</ele>
        <time>2018-04-05T09:32:43Z</time>
      </trkpt>
      <trkpt lat="42.85081" lon="0.10299">
        <ele>2367.52</ele>
        <time>2018-04-05T09:33:14Z</time>
      </trkpt>
      <trkpt lat="42.85073" lon="0.10322">
        <ele>2369.5</ele>
        <time>2018-04-05T09:33:40Z</time>
      </trkpt>
      <trkpt lat="42.85068" lon="0.10346">
        <ele>2369.52</ele>
        <time>2018-04-05T09:34:01Z</time>
      </trkpt>
      <trkpt lat="42.85059" lon="0.10369">
        <ele>2365.76</ele>
        <time>2018-04-05T09:34:12Z</time>
      </trkpt>
      <trkpt lat="42.85051" lon="0.10392">
        <ele>2365.53</ele>
        <time>2018-04-05T09:34:19Z</time>
      </trkpt>
      <trkpt lat="42.85038" lon="0.10409">
        <ele>2362.55</ele>
        <time>2018-04-05T09:34:33Z</time>
      </trkpt>
      <trkpt lat="42.85024" lon="0.10425">
        <ele>2354.55</ele>
        <time>2018-04-05T09:34:53Z</time>
      </trkpt>
      <trkpt lat="42.85008" lon="0.10439">
        <ele>2355.6</ele>
        <time>2018-04-05T09:35:11Z</time>
      </trkpt>
      <trkpt lat="42.84995" lon="0.10455">
        <ele>2357.5</ele>
        <time>2018-04-05T09:35:30Z</time>
      </trkpt>
      <trkpt lat="42.84981" lon="0.10471">
        <ele>2362.11</ele>
        <time>2018-04-05T09:35:57Z</time>
      </trkpt>
      <trkpt lat="42.84966" lon="0.10484">
        <ele>2367.22</ele>
        <time>2018-04-05T09:36:24Z</time>
      </trkpt>
      <trkpt lat="42.84949" lon="0.10496">
        <ele>2369.53</ele>
        <time>2018-04-05T09:36:49Z</time>
      </trkpt>
      <trkpt lat="42.84934" lon="0.10512">
        <ele>2373.23</ele>
        <time>2018-04-05T09:37:11Z</time>
      </trkpt>
      <trkpt lat="42.84918" lon="0.10524">
        <ele>2373.5</ele>
        <time>2018-04-05T09:37:30Z</time>
      </trkpt>
      <trkpt lat="42.84905" lon="0.10543">
        <ele>2373.52</ele>
        <time>2018-04-05T09:37:55Z</time>
      </trkpt>
      <trkpt lat="42.84892" lon="0.10561">
        <ele>2370.82</ele>
        <time>2018-04-05T09:38:19Z</time>
      </trkpt>
      <trkpt lat="42.84874" lon="0.10567">
        <ele>2378.4</ele>
        <time>2018-04-05T09:38:42Z</time>
      </trkpt>
      <trkpt lat="42.84855" lon="0.10572">
        <ele>2376.43</ele>
        <time>2018-04-05T09:38:57Z</time>
      </trkpt>
      <trkpt lat="42.84835" lon="0.10575">
        <ele>2374.22</ele>
        <time>2018-04-05T09:39:18Z</time>
      </trkpt>
      <trkpt lat="42.84822" lon="0.10593">
        <ele>2373.53</ele>
        <time>2018-04-05T09:39:38Z</time>
      </trkpt>
      <trkpt lat="42.84815" lon="0.10617">
        <ele>2376.73</ele>
        <time>2018-04-05T09:40:02Z</time>
      </trkpt>
      <trkpt lat="42.84806" lon="0.10639">
        <ele>2377.79</ele>
        <time>2018-04-05T09:40:29Z</time>
      </trkpt>
      <trkpt lat="42.84791" lon="0.10653">
        <ele>2373.6</ele>
        <time>2018-04-05T09:40:50Z</time>
      </trkpt>
      <trkpt lat="42.84777" lon="0.10669">
        <ele>2377.52</ele>
        <time>2018-04-05T09:41:10Z</time>
      </trkpt>
      <trkpt lat="42.84759" lon="0.10674">
        <ele>2383.85</ele>
        <time>2018-04-05T09:42:08Z</time>
      </trkpt>
      <trkpt lat="42.84749" lon="0.10695">
        <ele>2398.25</ele>
        <time>2018-04-05T09:43:06Z</time>
      </trkpt>
      <trkpt lat="42.84738" lon="0.10715">
        <ele>2418.13</ele>
        <time>2018-04-05T09:44:01Z</time>
      </trkpt>
      <trkpt lat="42.84722" lon="0.10732">
        <ele>2424.22</ele>
        <time>2018-04-05T09:44:37Z</time>
      </trkpt>
      <trkpt lat="42.84708" lon="0.1075">
        <ele>2429.51</ele>
        <time>2018-04-05T09:45:05Z</time>
      </trkpt>
      <trkpt lat="42.84696" lon="0.1077">
        <ele>2430.52</ele>
        <time>2018-04-05T09:45:40Z</time>
      </trkpt>
      <trkpt lat="42.84689" lon="0.10793">
        <ele>2432.5</ele>
        <time>2018-04-05T09:46:04Z</time>
      </trkpt>
      <trkpt lat="42.84676" lon="0.1081">
        <ele>2430.85</ele>
        <time>2018-04-05T09:46:33Z</time>
      </trkpt>
      <trkpt lat="42.84662" lon="0.10828">
        <ele>2435.51</ele>
        <time>2018-04-05T09:47:04Z</time>
      </trkpt>
      <trkpt lat="42.84646" lon="0.10838">
        <ele>2441.23</ele>
        <time>2018-04-05T09:47:29Z</time>
      </trkpt>
      <trkpt lat="42.84628" lon="0.10846">
        <ele>2450.21</ele>
        <time>2018-04-05T09:48:03Z</time>
      </trkpt>
      <trkpt lat="42.84614" lon="0.10861">
        <ele>2457.13</ele>
        <time>2018-04-05T09:48:34Z</time>
      </trkpt>
      <trkpt lat="42.84599" lon="0.10876">
        <ele>2462.43</ele>
        <time>2018-04-05T09:49:00Z</time>
      </trkpt>
      <trkpt lat="42.84582" lon="0.10886">
        <ele>2463.64</ele>
        <time>2018-04-05T09:49:23Z</time>
      </trkpt>
      <trkpt lat="42.84564" lon="0.10893">
        <ele>2470.73</ele>
        <time>2018-04-05T09:52:28Z</time>
      </trkpt>
      <trkpt lat="42.84545" lon="0.10898">
        <ele>2471.41</ele>
        <time>2018-04-05T09:52:58Z</time>
      </trkpt>
      <trkpt lat="42.84545" lon="0.10873">
        <ele>2478.49</ele>
        <time>2018-04-05T09:53:34Z</time>
      </trkpt>
      <trkpt lat="42.84527" lon="0.10876">
        <ele>2482.52</ele>
        <time>2018-04-05T09:54:02Z</time>
      </trkpt>
      <trkpt lat="42.84521" lon="0.10852">
        <ele>2489.51</ele>
        <time>2018-04-05T09:54:34Z</time>
      </trkpt>
      <trkpt lat="42.84506" lon="0.10837">
        <ele>2493.58</ele>
        <time>2018-04-05T09:55:04Z</time>
      </trkpt>
      <trkpt lat="42.84496" lon="0.10816">
        <ele>2495.74</ele>
        <time>2018-04-05T09:55:26Z</time>
      </trkpt>
      <trkpt lat="42.84485" lon="0.10796">
        <ele>2498.43</ele>
        <time>2018-04-05T09:55:50Z</time>
      </trkpt>
      <trkpt lat="42.84471" lon="0.1078">
        <ele>2499.2</ele>
        <time>2018-04-05T09:56:13Z</time>
      </trkpt>
      <trkpt lat="42.84462" lon="0.10758">
        <ele>2504.49</ele>
        <time>2018-04-05T09:56:47Z</time>
      </trkpt>
      <trkpt lat="42.84463" lon="0.10733">
        <ele>2517.43</ele>
        <time>2018-04-05T09:58:11Z</time>
      </trkpt>
      <trkpt lat="42.84479" lon="0.10718">
        <ele>2518.52</ele>
        <time>2018-04-05T09:58:29Z</time>
      </trkpt>
      <trkpt lat="42.8446" lon="0.10715">
        <ele>2525.11</ele>
        <time>2018-04-05T09:58:55Z</time>
      </trkpt>
      <trkpt lat="42.84442" lon="0.10713">
        <ele>2527.52</ele>
        <time>2018-04-05T09:59:14Z</time>
      </trkpt>
      <trkpt lat="42.84423" lon="0.10706">
        <ele>2530.52</ele>
        <time>2018-04-05T09:59:35Z</time>
      </trkpt>
      <trkpt lat="42.84408" lon="0.10693">
        <ele>2532.52</ele>
        <time>2018-04-05T10:00:10Z</time>
      </trkpt>
      <trkpt lat="42.84391" lon="0.10683">
        <ele>2537.52</ele>
        <time>2018-04-05T10:00:51Z</time>
      </trkpt>
      <trkpt lat="42.84378" lon="0.10665">
        <ele>2545.49</ele>
        <time>2018-04-05T10:01:22Z</time>
      </trkpt>
      <trkpt lat="42.84363" lon="0.10651">
        <ele>2550.21</ele>
        <time>2018-04-05T10:01:59Z</time>
      </trkpt>
      <trkpt lat="42.84346" lon="0.1064">
        <ele>2559.52</ele>
        <time>2018-04-05T10:02:40Z</time>
      </trkpt>
      <trkpt lat="42.84328" lon="0.10638">
        <ele>2565.49</ele>
        <time>2018-04-05T10:03:24Z</time>
      </trkpt>
      <trkpt lat="42.8431" lon="0.10636">
        <ele>2566.55</ele>
        <time>2018-04-05T10:03:55Z</time>
      </trkpt>
      <trkpt lat="42.84291" lon="0.10635">
        <ele>2575.22</ele>
        <time>2018-04-05T10:04:46Z</time>
      </trkpt>
      <trkpt lat="42.84273" lon="0.10637">
        <ele>2579.34</ele>
        <time>2018-04-05T10:05:23Z</time>
      </trkpt>
      <trkpt lat="42.84257" lon="0.10625">
        <ele>2583.64</ele>
        <time>2018-04-05T10:06:23Z</time>
      </trkpt>
      <trkpt lat="42.84242" lon="0.10639">
        <ele>2591.55</ele>
        <time>2018-04-05T10:07:02Z</time>
      </trkpt>
      <trkpt lat="42.84227" lon="0.10653">
        <ele>2597.43</ele>
        <time>2018-04-05T10:07:40Z</time>
      </trkpt>
      <trkpt lat="42.8421" lon="0.10662">
        <ele>2602.52</ele>
        <time>2018-04-05T10:08:12Z</time>
      </trkpt>
      <trkpt lat="42.84198" lon="0.10682">
        <ele>2602.52</ele>
        <time>2018-04-05T10:08:47Z</time>
      </trkpt>
      <trkpt lat="42.84191" lon="0.10705">
        <ele>2606.43</ele>
        <time>2018-04-05T10:09:18Z</time>
      </trkpt>
      <trkpt lat="42.84173" lon="0.10707">
        <ele>2617.5</ele>
        <time>2018-04-05T10:09:58Z</time>
      </trkpt>
      <trkpt lat="42.84153" lon="0.10711">
        <ele>2624.82</ele>
        <time>2018-04-05T10:10:43Z</time>
      </trkpt>
      <trkpt lat="42.84135" lon="0.10714">
        <ele>2630.23</ele>
        <time>2018-04-05T10:11:15Z</time>
      </trkpt>
      <trkpt lat="42.84116" lon="0.10708">
        <ele>2635.52</ele>
        <time>2018-04-05T10:26:44Z</time>
      </trkpt>
      <trkpt lat="42.84098" lon="0.10705">
        <ele>2636.52</ele>
        <time>2018-04-05T10:27:05Z</time>
      </trkpt>
      <trkpt lat="42.8408" lon="0.10707">
        <ele>2635.43</ele>
        <time>2018-04-05T10:27:27Z</time>
      </trkpt>
      <trkpt lat="42.84062" lon="0.10702">
        <ele>2632.5</ele>
        <time>2018-04-05T10:27:49Z</time>
      </trkpt>
      <trkpt lat="42.84043" lon="0.10703">
        <ele>2633.22</ele>
        <time>2018-04-05T10:28:09Z</time>
      </trkpt>
      <trkpt lat="42.84025" lon="0.10703">
        <ele>2640.49</ele>
        <time>2018-04-05T10:28:33Z</time>
      </trkpt>
      <trkpt lat="42.84007" lon="0.10704">
        <ele>2644.49</ele>
        <time>2018-04-05T10:28:55Z</time>
      </trkpt>
      <trkpt lat="42.83989" lon="0.10699">
        <ele>2645.8</ele>
        <time>2018-04-05T10:29:22Z</time>
      </trkpt>
      <trkpt lat="42.83973" lon="0.10688">
        <ele>2650.53</ele>
        <time>2018-04-05T10:29:50Z</time>
      </trkpt>
      <trkpt lat="42.83958" lon="0.10673">
        <ele>2655.22</ele>
        <time>2018-04-05T10:30:17Z</time>
      </trkpt>
      <trkpt lat="42.83941" lon="0.10661">
        <ele>2659.82</ele>
        <time>2018-04-05T10:30:41Z</time>
      </trkpt>
      <trkpt lat="42.83923" lon="0.10653">
        <ele>2657.54</ele>
        <time>2018-04-05T10:30:58Z</time>
      </trkpt>
      <trkpt lat="42.83904" lon="0.10652">
        <ele>2656.52</ele>
        <time>2018-04-05T10:31:17Z</time>
      </trkpt>
      <trkpt lat="42.83886" lon="0.10643">
        <ele>2655.53</ele>
        <time>2018-04-05T10:31:32Z</time>
      </trkpt>
      <trkpt lat="42.83874" lon="0.10625">
        <ele>2654.82</ele>
        <time>2018-04-05T10:31:51Z</time>
      </trkpt>
      <trkpt lat="42.83863" lon="0.10605">
        <ele>2656.52</ele>
        <time>2018-04-05T10:32:10Z</time>
      </trkpt>
      <trkpt lat="42.83854" lon="0.10584">
        <ele>2660.43</ele>
        <time>2018-04-05T10:32:30Z</time>
      </trkpt>
      <trkpt lat="42.83844" lon="0.10563">
        <ele>2665.51</ele>
        <time>2018-04-05T10:32:52Z</time>
      </trkpt>
      <trkpt lat="42.83839" lon="0.10539">
        <ele>2664.8</ele>
        <time>2018-04-05T10:33:14Z</time>
      </trkpt>
      <trkpt lat="42.83832" lon="0.10516">
        <ele>2667.22</ele>
        <time>2018-04-05T10:33:46Z</time>
      </trkpt>
      <trkpt lat="42.83837" lon="0.10491">
        <ele>2672.21</ele>
        <time>2018-04-05T10:34:11Z</time>
      </trkpt>
      <trkpt lat="42.83833" lon="0.10467">
        <ele>2674.6</ele>
        <time>2018-04-05T10:34:39Z</time>
      </trkpt>
      <trkpt lat="42.83826" lon="0.10444">
        <ele>2676.31</ele>
        <time>2018-04-05T10:35:08Z</time>
      </trkpt>
      <trkpt lat="42.83824" lon="0.10419">
        <ele>2680.49</ele>
        <time>2018-04-05T10:35:34Z</time>
      </trkpt>
      <trkpt lat="42.8382" lon="0.10394">
        <ele>2681.55</ele>
        <time>2018-04-05T10:35:56Z</time>
      </trkpt>
      <trkpt lat="42.83816" lon="0.10369">
        <ele>2681.82</ele>
        <time>2018-04-05T10:36:18Z</time>
      </trkpt>
      <trkpt lat="42.83797" lon="0.10368">
        <ele>2686.43</ele>
        <time>2018-04-05T10:37:07Z</time>
      </trkpt>
      <trkpt lat="42.83779" lon="0.10376">
        <ele>2693.52</ele>
        <time>2018-04-05T10:37:48Z</time>
      </trkpt>
      <trkpt lat="42.83761" lon="0.10369">
        <ele>2703.51</ele>
        <time>2018-04-05T10:38:29Z</time>
      </trkpt>
      <trkpt lat="42.8375" lon="0.1035">
        <ele>2709.24</ele>
        <time>2018-04-05T10:39:22Z</time>
      </trkpt>
      <trkpt lat="42.83731" lon="0.1035">
        <ele>2713.51</ele>
        <time>2018-04-05T10:39:56Z</time>
      </trkpt>
      <trkpt lat="42.83712" lon="0.10353">
        <ele>2714.22</ele>
        <time>2018-04-05T10:40:17Z</time>
      </trkpt>
      <trkpt lat="42.83698" lon="0.10338">
        <ele>2719.51</ele>
        <time>2018-04-05T10:40:50Z</time>
      </trkpt>
      <trkpt lat="42.83698" lon="0.10313">
        <ele>2724.58</ele>
        <time>2018-04-05T10:41:23Z</time>
      </trkpt>
      <trkpt lat="42.8368" lon="0.10322">
        <ele>2724.82</ele>
        <time>2018-04-05T10:41:50Z</time>
      </trkpt>
      <trkpt lat="42.83672" lon="0.10299">
        <ele>2734.28</ele>
        <time>2018-04-05T10:42:33Z</time>
      </trkpt>
      <trkpt lat="42.83654" lon="0.10294">
        <ele>2739.43</ele>
        <time>2018-04-05T10:43:17Z</time>
      </trkpt>
      <trkpt lat="42.83636" lon="0.10296">
        <ele>2743.52</ele>
        <time>2018-04-05T10:43:42Z</time>
      </trkpt>
      <trkpt lat="42.83626" lon="0.10276">
        <ele>2747.52</ele>
        <time>2018-04-05T10:44:20Z</time>
      </trkpt>
      <trkpt lat="42.83608" lon="0.10269">
        <ele>2750.5</ele>
        <time>2018-04-05T10:45:00Z</time>
      </trkpt>
      <trkpt lat="42.8359" lon="0.10271">
        <ele>2755.51</ele>
        <time>2018-04-05T10:45:27Z</time>
      </trkpt>
      <trkpt lat="42.83572" lon="0.10268">
        <ele>2756.81</ele>
        <time>2018-04-05T10:45:53Z</time>
      </trkpt>
      <trkpt lat="42.83554" lon="0.1026">
        <ele>2758.52</ele>
        <time>2018-04-05T10:46:16Z</time>
      </trkpt>
      <trkpt lat="42.83536" lon="0.10257">
        <ele>2760.61</ele>
        <time>2018-04-05T10:46:43Z</time>
      </trkpt>
      <trkpt lat="42.83518" lon="0.10251">
        <ele>2764.51</ele>
        <time>2018-04-05T10:47:07Z</time>
      </trkpt>
      <trkpt lat="42.83501" lon="0.10248">
        <ele>2764.24</ele>
        <time>2018-04-05T10:47:31Z</time>
      </trkpt>
      <trkpt lat="42.83483" lon="0.10243">
        <ele>2766.79</ele>
        <time>2018-04-05T10:47:55Z</time>
      </trkpt>
      <trkpt lat="42.83465" lon="0.10235">
        <ele>2769.43</ele>
        <time>2018-04-05T10:48:20Z</time>
      </trkpt>
      <trkpt lat="42.83447" lon="0.10235">
        <ele>2768.52</ele>
        <time>2018-04-05T10:48:45Z</time>
      </trkpt>
      <trkpt lat="42.83428" lon="0.10242">
        <ele>2766.55</ele>
        <time>2018-04-05T10:49:03Z</time>
      </trkpt>
      <trkpt lat="42.8341" lon="0.10245">
        <ele>2766.53</ele>
        <time>2018-04-05T10:49:16Z</time>
      </trkpt>
      <trkpt lat="42.83391" lon="0.10246">
        <ele>2765.28</ele>
        <time>2018-04-05T10:51:24Z</time>
      </trkpt>
      <trkpt lat="42.83373" lon="0.10248">
        <ele>2766.22</ele>
        <time>2018-04-05T10:51:50Z</time>
      </trkpt>
      <trkpt lat="42.83355" lon="0.10252">
        <ele>2768.52</ele>
        <time>2018-04-05T10:52:17Z</time>
      </trkpt>
      <trkpt lat="42.83337" lon="0.10252">
        <ele>2773.34</ele>
        <time>2018-04-05T10:52:48Z</time>
      </trkpt>
      <trkpt lat="42.83339" lon="0.10228">
        <ele>2780.43</ele>
        <time>2018-04-05T10:53:16Z</time>
      </trkpt>
      <trkpt lat="42.83328" lon="0.10207">
        <ele>2785.52</ele>
        <time>2018-04-05T10:53:58Z</time>
      </trkpt>
      <trkpt lat="42.83311" lon="0.10195">
        <ele>2786.82</ele>
        <time>2018-04-05T10:54:30Z</time>
      </trkpt>
      <trkpt lat="42.83294" lon="0.10205">
        <ele>2788.22</ele>
        <time>2018-04-05T10:55:01Z</time>
      </trkpt>
      <trkpt lat="42.83282" lon="0.10224">
        <ele>2794.49</ele>
        <time>2018-04-05T10:55:37Z</time>
      </trkpt>
      <trkpt lat="42.83267" lon="0.1021">
        <ele>2800.41</ele>
        <time>2018-04-05T10:56:14Z</time>
      </trkpt>
      <trkpt lat="42.83251" lon="0.10221">
        <ele>2801.61</ele>
        <time>2018-04-05T10:56:50Z</time>
      </trkpt>
      <trkpt lat="42.83238" lon="0.10238">
        <ele>2808.51</ele>
        <time>2018-04-05T10:57:23Z</time>
      </trkpt>
      <trkpt lat="42.83222" lon="0.1025">
        <ele>2808.91</ele>
        <time>2018-04-05T10:58:00Z</time>
      </trkpt>
      <trkpt lat="42.83205" lon="0.1024">
        <ele>2816.52</ele>
        <time>2018-04-05T10:58:34Z</time>
      </trkpt>
      <trkpt lat="42.83189" lon="0.10253">
        <ele>2818.22</ele>
        <time>2018-04-05T10:59:11Z</time>
      </trkpt>
      <trkpt lat="42.83173" lon="0.10242">
        <ele>2827.52</ele>
        <time>2018-04-05T11:00:03Z</time>
      </trkpt>
      <trkpt lat="42.83157" lon="0.10253">
        <ele>2834.52</ele>
        <time>2018-04-05T11:00:59Z</time>
      </trkpt>
      <trkpt lat="42.83141" lon="0.10241">
        <ele>2841.19</ele>
        <time>2018-04-05T11:01:41Z</time>
      </trkpt>
      <trkpt lat="42.8313" lon="0.10261">
        <ele>2845.13</ele>
        <time>2018-04-05T11:02:33Z</time>
      </trkpt>
      <trkpt lat="42.83113" lon="0.10272">
        <ele>2850.53</ele>
        <time>2018-04-05T11:03:07Z</time>
      </trkpt>
      <trkpt lat="42.83109" lon="0.10248">
        <ele>2861.61</ele>
        <time>2018-04-05T11:04:11Z</time>
      </trkpt>
      <trkpt lat="42.83096" lon="0.10267">
        <ele>2864.52</ele>
        <time>2018-04-05T11:04:55Z</time>
      </trkpt>
      <trkpt lat="42.83082" lon="0.10282">
        <ele>2868.52</ele>
        <time>2018-04-05T11:05:28Z</time>
      </trkpt>
      <trkpt lat="42.83067" lon="0.10297">
        <ele>2871.52</ele>
        <time>2018-04-05T11:05:59Z</time>
      </trkpt>
      <trkpt lat="42.83053" lon="0.10315">
        <ele>2874.59</ele>
        <time>2018-04-05T11:06:24Z</time>
      </trkpt>
      <trkpt lat="42.83041" lon="0.10332">
        <ele>2877.52</ele>
        <time>2018-04-05T11:06:53Z</time>
      </trkpt>
      <trkpt lat="42.83027" lon="0.1035">
        <ele>2879.12</ele>
        <time>2018-04-05T11:07:18Z</time>
      </trkpt>
      <trkpt lat="42.83015" lon="0.10371">
        <ele>2882.52</ele>
        <time>2018-04-05T11:07:46Z</time>
      </trkpt>
      <trkpt lat="42.83003" lon="0.10392">
        <ele>2882.8</ele>
        <time>2018-04-05T11:08:14Z</time>
      </trkpt>
      <trkpt lat="42.82994" lon="0.10413">
        <ele>2887.13</ele>
        <time>2018-04-05T11:08:46Z</time>
      </trkpt>
      <trkpt lat="42.82986" lon="0.1039">
        <ele>2893.51</ele>
        <time>2018-04-05T11:09:37Z</time>
      </trkpt>
      <trkpt lat="42.82973" lon="0.10409">
        <ele>2895.52</ele>
        <time>2018-04-05T11:10:11Z</time>
      </trkpt>
      <trkpt lat="42.82964" lon="0.1043">
        <ele>2898.51</ele>
        <time>2018-04-05T11:10:42Z</time>
      </trkpt>
      <trkpt lat="42.8296" lon="0.10454">
        <ele>2899.51</ele>
        <time>2018-04-05T11:11:08Z</time>
      </trkpt>
      <trkpt lat="42.82943" lon="0.10444">
        <ele>2912.22</ele>
        <time>2018-04-05T11:12:06Z</time>
      </trkpt>
      <trkpt lat="42.82939" lon="0.10469">
        <ele>2916.58</ele>
        <time>2018-04-05T11:17:39Z</time>
      </trkpt>
      <trkpt lat="42.82943" lon="0.10493">
        <ele>2928.49</ele>
        <time>2018-04-05T11:18:52Z</time>
      </trkpt>
      <trkpt lat="42.82946" lon="0.10517">
        <ele>2931.51</ele>
        <time>2018-04-05T11:19:32Z</time>
      </trkpt>
      <trkpt lat="42.82952" lon="0.10541">
        <ele>2937.43</ele>
        <time>2018-04-05T11:20:14Z</time>
      </trkpt>
      <trkpt lat="42.82934" lon="0.10536">
        <ele>2944.34</ele>
        <time>2018-04-05T11:21:04Z</time>
      </trkpt>
      <trkpt lat="42.82927" lon="0.10559">
        <ele>2951.52</ele>
        <time>2018-04-05T11:22:05Z</time>
      </trkpt>
      <trkpt lat="42.82923" lon="0.10585">
        <ele>2954.22</ele>
        <time>2018-04-05T11:22:39Z</time>
      </trkpt>
      <trkpt lat="42.82916" lon="0.10608">
        <ele>2961.31</ele>
        <time>2018-04-05T11:23:14Z</time>
      </trkpt>
      <trkpt lat="42.82906" lon="0.10631">
        <ele>2971.21</ele>
        <time>2018-04-05T11:23:52Z</time>
      </trkpt>
      <trkpt lat="42.82898" lon="0.10654">
        <ele>2979.2</ele>
        <time>2018-04-05T11:24:28Z</time>
      </trkpt>
      <trkpt lat="42.82886" lon="0.10673">
        <ele>2982.52</ele>
        <time>2018-04-05T11:25:05Z</time>
      </trkpt>
      <trkpt lat="42.82884" lon="0.10698">
        <ele>2992.22</ele>
        <time>2018-04-05T11:25:59Z</time>
      </trkpt>
      <trkpt lat="42.82865" lon="0.10699">
        <ele>2993.51</ele>
        <time>2018-04-05T11:26:27Z</time>
      </trkpt>
      <trkpt lat="42.82846" lon="0.10701">
        <ele>2995.21</ele>
        <time>2018-04-05T11:26:52Z</time>
      </trkpt>
      <trkpt lat="42.82837" lon="0.10723">
        <ele>3003.51</ele>
        <time>2018-04-05T11:27:50Z</time>
      </trkpt>
      <trkpt lat="42.82842" lon="0.10747">
        <ele>3006.51</ele>
        <time>2018-04-05T11:28:23Z</time>
      </trkpt>
      <trkpt lat="42.82827" lon="0.10762">
        <ele>3011.22</ele>
        <time>2018-04-05T11:29:16Z</time>
      </trkpt>
      <trkpt lat="42.82809" lon="0.10752">
        <ele>3016.22</ele>
        <time>2018-04-05T11:29:54Z</time>
      </trkpt>
      <trkpt lat="42.82793" lon="0.10743">
        <ele>3020.52</ele>
        <time>2018-04-05T11:30:32Z</time>
      </trkpt>
      <trkpt lat="42.82793" lon="0.10767">
        <ele>3028.5</ele>
        <time>2018-04-05T11:31:14Z</time>
      </trkpt>
      <trkpt lat="42.82808" lon="0.10753">
        <ele>3026.56</ele>
        <time>2018-04-05T12:01:09Z</time>
      </trkpt>
      <trkpt lat="42.82822" lon="0.1077">
        <ele>3024.26</ele>
        <time>2018-04-05T12:01:15Z</time>
      </trkpt>
      <trkpt lat="42.82841" lon="0.10756">
        <ele>3015.77</ele>
        <time>2018-04-05T12:01:55Z</time>
      </trkpt>
      <trkpt lat="42.82851" lon="0.10734">
        <ele>3010.63</ele>
        <time>2018-04-05T12:02:00Z</time>
      </trkpt>
      <trkpt lat="42.82861" lon="0.10713">
        <ele>3005.94</ele>
        <time>2018-04-05T12:02:05Z</time>
      </trkpt>
      <trkpt lat="42.82868" lon="0.10687">
        <ele>2998.53</ele>
        <time>2018-04-05T12:02:11Z</time>
      </trkpt>
      <trkpt lat="42.82877" lon="0.10666">
        <ele>2993.26</ele>
        <time>2018-04-05T12:02:15Z</time>
      </trkpt>
      <trkpt lat="42.82892" lon="0.10645">
        <ele>2985.29</ele>
        <time>2018-04-05T12:02:20Z</time>
      </trkpt>
      <trkpt lat="42.82904" lon="0.10625">
        <ele>2977.96</ele>
        <time>2018-04-05T12:02:24Z</time>
      </trkpt>
      <trkpt lat="42.82914" lon="0.10601">
        <ele>2969.87</ele>
        <time>2018-04-05T12:02:30Z</time>
      </trkpt>
      <trkpt lat="42.82933" lon="0.10601">
        <ele>2969.52</ele>
        <time>2018-04-05T12:02:35Z</time>
      </trkpt>
      <trkpt lat="42.82931" lon="0.10575">
        <ele>2959.62</ele>
        <time>2018-04-05T12:03:32Z</time>
      </trkpt>
      <trkpt lat="42.82945" lon="0.10554">
        <ele>2954.83</ele>
        <time>2018-04-05T12:03:42Z</time>
      </trkpt>
      <trkpt lat="42.82948" lon="0.1053">
        <ele>2946.65</ele>
        <time>2018-04-05T12:03:51Z</time>
      </trkpt>
      <trkpt lat="42.82942" lon="0.10505">
        <ele>2942.65</ele>
        <time>2018-04-05T12:03:57Z</time>
      </trkpt>
      <trkpt lat="42.82942" lon="0.1048">
        <ele>2934.56</ele>
        <time>2018-04-05T12:04:10Z</time>
      </trkpt>
      <trkpt lat="42.82933" lon="0.10456">
        <ele>2930.22</ele>
        <time>2018-04-05T12:04:15Z</time>
      </trkpt>
      <trkpt lat="42.82944" lon="0.10429">
        <ele>2925.92</ele>
        <time>2018-04-05T12:04:21Z</time>
      </trkpt>
      <trkpt lat="42.8295" lon="0.10403">
        <ele>2913.55</ele>
        <time>2018-04-05T12:07:30Z</time>
      </trkpt>
      <trkpt lat="42.82962" lon="0.1038">
        <ele>2912.55</ele>
        <time>2018-04-05T12:07:34Z</time>
      </trkpt>
      <trkpt lat="42.82975" lon="0.10362">
        <ele>2909.94</ele>
        <time>2018-04-05T12:07:37Z</time>
      </trkpt>
      <trkpt lat="42.82995" lon="0.10363">
        <ele>2901.37</ele>
        <time>2018-04-05T12:07:44Z</time>
      </trkpt>
      <trkpt lat="42.83012" lon="0.10348">
        <ele>2894.66</ele>
        <time>2018-04-05T12:07:48Z</time>
      </trkpt>
      <trkpt lat="42.83029" lon="0.10334">
        <ele>2887.99</ele>
        <time>2018-04-05T12:07:52Z</time>
      </trkpt>
      <trkpt lat="42.83046" lon="0.10321">
        <ele>2885.64</ele>
        <time>2018-04-05T12:07:57Z</time>
      </trkpt>
      <trkpt lat="42.83062" lon="0.10309">
        <ele>2883.54</ele>
        <time>2018-04-05T12:08:03Z</time>
      </trkpt>
      <trkpt lat="42.8308" lon="0.10313">
        <ele>2880.62</ele>
        <time>2018-04-05T12:08:09Z</time>
      </trkpt>
      <trkpt lat="42.83101" lon="0.10309">
        <ele>2874.98</ele>
        <time>2018-04-05T12:08:14Z</time>
      </trkpt>
      <trkpt lat="42.83124" lon="0.10299">
        <ele>2868.96</ele>
        <time>2018-04-05T12:08:19Z</time>
      </trkpt>
      <trkpt lat="42.83145" lon="0.10289">
        <ele>2864.07</ele>
        <time>2018-04-05T12:08:22Z</time>
      </trkpt>
      <trkpt lat="42.83163" lon="0.10287">
        <ele>2860.95</ele>
        <time>2018-04-05T12:08:25Z</time>
      </trkpt>
      <trkpt lat="42.83182" lon="0.10279">
        <ele>2854.25</ele>
        <time>2018-04-05T12:08:31Z</time>
      </trkpt>
      <trkpt lat="42.83189" lon="0.10303">
        <ele>2841.63</ele>
        <time>2018-04-05T12:08:39Z</time>
      </trkpt>
      <trkpt lat="42.83208" lon="0.10299">
        <ele>2836.05</ele>
        <time>2018-04-05T12:08:43Z</time>
      </trkpt>
      <trkpt lat="42.83229" lon="0.10294">
        <ele>2831.04</ele>
        <time>2018-04-05T12:08:47Z</time>
      </trkpt>
      <trkpt lat="42.83251" lon="0.10285">
        <ele>2826.74</ele>
        <time>2018-04-05T12:08:51Z</time>
      </trkpt>
      <trkpt lat="42.8327" lon="0.10271">
        <ele>2824.62</ele>
        <time>2018-04-05T12:08:55Z</time>
      </trkpt>
      <trkpt lat="42.83289" lon="0.10265">
        <ele>2822.85</ele>
        <time>2018-04-05T12:08:59Z</time>
      </trkpt>
      <trkpt lat="42.8331" lon="0.10277">
        <ele>2821.82</ele>
        <time>2018-04-05T12:09:03Z</time>
      </trkpt>
      <trkpt lat="42.83328" lon="0.10273">
        <ele>2816.55</ele>
        <time>2018-04-05T12:09:07Z</time>
      </trkpt>
      <trkpt lat="42.83346" lon="0.10262">
        <ele>2811.96</ele>
        <time>2018-04-05T12:09:11Z</time>
      </trkpt>
      <trkpt lat="42.83364" lon="0.10256">
        <ele>2809.92</ele>
        <time>2018-04-05T12:09:14Z</time>
      </trkpt>
      <trkpt lat="42.83383" lon="0.10257">
        <ele>2802.42</ele>
        <time>2018-04-05T12:09:17Z</time>
      </trkpt>
      <trkpt lat="42.83406" lon="0.10266">
        <ele>2797.35</ele>
        <time>2018-04-05T12:09:20Z</time>
      </trkpt>
      <trkpt lat="42.83427" lon="0.10276">
        <ele>2790.2</ele>
        <time>2018-04-05T12:09:23Z</time>
      </trkpt>
      <trkpt lat="42.83445" lon="0.10285">
        <ele>2787.87</ele>
        <time>2018-04-05T12:09:26Z</time>
      </trkpt>
      <trkpt lat="42.83465" lon="0.10298">
        <ele>2782.05</ele>
        <time>2018-04-05T12:09:30Z</time>
      </trkpt>
      <trkpt lat="42.83484" lon="0.103">
        <ele>2776.95</ele>
        <time>2018-04-05T12:09:35Z</time>
      </trkpt>
      <trkpt lat="42.83502" lon="0.10304">
        <ele>2771.55</ele>
        <time>2018-04-05T12:09:46Z</time>
      </trkpt>
      <trkpt lat="42.83521" lon="0.10303">
        <ele>2766.83</ele>
        <time>2018-04-05T12:10:43Z</time>
      </trkpt>
      <trkpt lat="42.8354" lon="0.10312">
        <ele>2760.98</ele>
        <time>2018-04-05T12:10:48Z</time>
      </trkpt>
      <trkpt lat="42.83559" lon="0.10313">
        <ele>2758.65</ele>
        <time>2018-04-05T12:10:51Z</time>
      </trkpt>
      <trkpt lat="42.83579" lon="0.10312">
        <ele>2758.46</ele>
        <time>2018-04-05T12:10:54Z</time>
      </trkpt>
      <trkpt lat="42.83599" lon="0.10314">
        <ele>2756.83</ele>
        <time>2018-04-05T12:10:58Z</time>
      </trkpt>
      <trkpt lat="42.83619" lon="0.10316">
        <ele>2755.55</ele>
        <time>2018-04-05T12:11:03Z</time>
      </trkpt>
      <trkpt lat="42.83638" lon="0.1032">
        <ele>2753.64</ele>
        <time>2018-04-05T12:11:06Z</time>
      </trkpt>
      <trkpt lat="42.8366" lon="0.10325">
        <ele>2753.46</ele>
        <time>2018-04-05T12:11:09Z</time>
      </trkpt>
      <trkpt lat="42.8368" lon="0.10325">
        <ele>2750.92</ele>
        <time>2018-04-05T12:11:15Z</time>
      </trkpt>
      <trkpt lat="42.83699" lon="0.10328">
        <ele>2746.62</ele>
        <time>2018-04-05T12:11:22Z</time>
      </trkpt>
      <trkpt lat="42.83716" lon="0.10336">
        <ele>2726.64</ele>
        <time>2018-04-05T12:13:47Z</time>
      </trkpt>
      <trkpt lat="42.83732" lon="0.10349">
        <ele>2726.53</ele>
        <time>2018-04-05T12:13:50Z</time>
      </trkpt>
      <trkpt lat="42.83751" lon="0.10348">
        <ele>2724.85</ele>
        <time>2018-04-05T12:13:55Z</time>
      </trkpt>
      <trkpt lat="42.83772" lon="0.10354">
        <ele>2719.01</ele>
        <time>2018-04-05T12:14:01Z</time>
      </trkpt>
      <trkpt lat="42.83794" lon="0.10357">
        <ele>2711.99</ele>
        <time>2018-04-05T12:14:06Z</time>
      </trkpt>
      <trkpt lat="42.83813" lon="0.1035">
        <ele>2706.87</ele>
        <time>2018-04-05T12:14:11Z</time>
      </trkpt>
      <trkpt lat="42.83822" lon="0.10372">
        <ele>2701.67</ele>
        <time>2018-04-05T12:14:15Z</time>
      </trkpt>
      <trkpt lat="42.83826" lon="0.10398">
        <ele>2698.51</ele>
        <time>2018-04-05T12:14:19Z</time>
      </trkpt>
      <trkpt lat="42.83827" lon="0.10423">
        <ele>2693.92</ele>
        <time>2018-04-05T12:14:25Z</time>
      </trkpt>
      <trkpt lat="42.83828" lon="0.10449">
        <ele>2691.62</ele>
        <time>2018-04-05T12:14:30Z</time>
      </trkpt>
      <trkpt lat="42.83842" lon="0.10472">
        <ele>2690.61</ele>
        <time>2018-04-05T12:14:35Z</time>
      </trkpt>
      <trkpt lat="42.83853" lon="0.10497">
        <ele>2688.55</ele>
        <time>2018-04-05T12:14:42Z</time>
      </trkpt>
      <trkpt lat="42.83867" lon="0.10516">
        <ele>2685.53</ele>
        <time>2018-04-05T12:14:49Z</time>
      </trkpt>
      <trkpt lat="42.83884" lon="0.1053">
        <ele>2685.52</ele>
        <time>2018-04-05T12:14:55Z</time>
      </trkpt>
      <trkpt lat="42.83902" lon="0.10533">
        <ele>2684.53</ele>
        <time>2018-04-05T12:15:01Z</time>
      </trkpt>
      <trkpt lat="42.8392" lon="0.10538">
        <ele>2682.55</ele>
        <time>2018-04-05T12:15:10Z</time>
      </trkpt>
      <trkpt lat="42.83937" lon="0.10544">
        <ele>2679.56</ele>
        <time>2018-04-05T12:15:17Z</time>
      </trkpt>
      <trkpt lat="42.83956" lon="0.10551">
        <ele>2676.82</ele>
        <time>2018-04-05T12:15:25Z</time>
      </trkpt>
      <trkpt lat="42.83973" lon="0.10559">
        <ele>2674.83</ele>
        <time>2018-04-05T12:15:33Z</time>
      </trkpt>
      <trkpt lat="42.83991" lon="0.1057">
        <ele>2673.82</ele>
        <time>2018-04-05T12:15:38Z</time>
      </trkpt>
      <trkpt lat="42.84005" lon="0.10587">
        <ele>2668.52</ele>
        <time>2018-04-05T12:15:58Z</time>
      </trkpt>
      <trkpt lat="42.84023" lon="0.10588">
        <ele>2666.5</ele>
        <time>2018-04-05T12:17:26Z</time>
      </trkpt>
      <trkpt lat="42.8404" lon="0.1058">
        <ele>2665.73</ele>
        <time>2018-04-05T12:17:37Z</time>
      </trkpt>
      <trkpt lat="42.84058" lon="0.10571">
        <ele>2664.84</ele>
        <time>2018-04-05T12:17:42Z</time>
      </trkpt>
      <trkpt lat="42.84079" lon="0.1057">
        <ele>2662.62</ele>
        <time>2018-04-05T12:17:47Z</time>
      </trkpt>
      <trkpt lat="42.84099" lon="0.10576">
        <ele>2664.22</ele>
        <time>2018-04-05T12:17:52Z</time>
      </trkpt>
      <trkpt lat="42.84119" lon="0.10572">
        <ele>2662.64</ele>
        <time>2018-04-05T12:17:56Z</time>
      </trkpt>
      <trkpt lat="42.84136" lon="0.10563">
        <ele>2661.83</ele>
        <time>2018-04-05T12:17:59Z</time>
      </trkpt>
      <trkpt lat="42.84154" lon="0.10552">
        <ele>2659.64</ele>
        <time>2018-04-05T12:18:03Z</time>
      </trkpt>
      <trkpt lat="42.84172" lon="0.10536">
        <ele>2653.85</ele>
        <time>2018-04-05T12:18:31Z</time>
      </trkpt>
      <trkpt lat="42.84187" lon="0.10517">
        <ele>2652.53</ele>
        <time>2018-04-05T12:18:35Z</time>
      </trkpt>
      <trkpt lat="42.84203" lon="0.10499">
        <ele>2650.82</ele>
        <time>2018-04-05T12:18:41Z</time>
      </trkpt>
      <trkpt lat="42.84212" lon="0.10478">
        <ele>2648.53</ele>
        <time>2018-04-05T12:18:48Z</time>
      </trkpt>
      <trkpt lat="42.84219" lon="0.1045">
        <ele>2645.62</ele>
        <time>2018-04-05T12:18:56Z</time>
      </trkpt>
      <trkpt lat="42.84226" lon="0.10421">
        <ele>2642.65</ele>
        <time>2018-04-05T12:19:00Z</time>
      </trkpt>
      <trkpt lat="42.84235" lon="0.10399">
        <ele>2639.73</ele>
        <time>2018-04-05T12:19:04Z</time>
      </trkpt>
      <trkpt lat="42.84248" lon="0.10372">
        <ele>2637.55</ele>
        <time>2018-04-05T12:19:09Z</time>
      </trkpt>
      <trkpt lat="42.84262" lon="0.10357">
        <ele>2635.62</ele>
        <time>2018-04-05T12:19:13Z</time>
      </trkpt>
      <trkpt lat="42.84281" lon="0.10344">
        <ele>2632.94</ele>
        <time>2018-04-05T12:19:18Z</time>
      </trkpt>
      <trkpt lat="42.84303" lon="0.10338">
        <ele>2630.56</ele>
        <time>2018-04-05T12:19:22Z</time>
      </trkpt>
      <trkpt lat="42.84321" lon="0.10337">
        <ele>2626.61</ele>
        <time>2018-04-05T12:20:40Z</time>
      </trkpt>
      <trkpt lat="42.84339" lon="0.10335">
        <ele>2624.83</ele>
        <time>2018-04-05T12:20:45Z</time>
      </trkpt>
      <trkpt lat="42.84359" lon="0.10326">
        <ele>2625.51</ele>
        <time>2018-04-05T12:20:51Z</time>
      </trkpt>
      <trkpt lat="42.84373" lon="0.10345">
        <ele>2623.55</ele>
        <time>2018-04-05T12:20:57Z</time>
      </trkpt>
      <trkpt lat="42.84391" lon="0.10356">
        <ele>2621.53</ele>
        <time>2018-04-05T12:21:27Z</time>
      </trkpt>
      <trkpt lat="42.84398" lon="0.10334">
        <ele>2612.85</ele>
        <time>2018-04-05T12:22:50Z</time>
      </trkpt>
      <trkpt lat="42.84416" lon="0.10338">
        <ele>2607.86</ele>
        <time>2018-04-05T12:22:58Z</time>
      </trkpt>
      <trkpt lat="42.84415" lon="0.10312">
        <ele>2595.86</ele>
        <time>2018-04-05T12:23:20Z</time>
      </trkpt>
      <trkpt lat="42.84405" lon="0.10289">
        <ele>2591.55</ele>
        <time>2018-04-05T12:23:30Z</time>
      </trkpt>
      <trkpt lat="42.84423" lon="0.103">
        <ele>2586.55</ele>
        <time>2018-04-05T12:24:33Z</time>
      </trkpt>
      <trkpt lat="42.84436" lon="0.10318">
        <ele>2585.52</ele>
        <time>2018-04-05T12:24:45Z</time>
      </trkpt>
      <trkpt lat="42.84445" lon="0.10339">
        <ele>2585.52</ele>
        <time>2018-04-05T12:24:57Z</time>
      </trkpt>
      <trkpt lat="42.84455" lon="0.10362">
        <ele>2585.52</ele>
        <time>2018-04-05T12:25:09Z</time>
      </trkpt>
      <trkpt lat="42.84466" lon="0.10384">
        <ele>2585.61</ele>
        <time>2018-04-05T12:25:21Z</time>
      </trkpt>
      <trkpt lat="42.84478" lon="0.10405">
        <ele>2584.52</ele>
        <time>2018-04-05T12:25:30Z</time>
      </trkpt>
      <trkpt lat="42.84491" lon="0.10422">
        <ele>2586.22</ele>
        <time>2018-04-05T12:25:56Z</time>
      </trkpt>
      <trkpt lat="42.84503" lon="0.10443">
        <ele>2582.55</ele>
        <time>2018-04-05T12:26:11Z</time>
      </trkpt>
      <trkpt lat="42.84508" lon="0.10466">
        <ele>2579.61</ele>
        <time>2018-04-05T12:27:38Z</time>
      </trkpt>
      <trkpt lat="42.84528" lon="0.10468">
        <ele>2576.83</ele>
        <time>2018-04-05T12:27:44Z</time>
      </trkpt>
      <trkpt lat="42.84545" lon="0.1046">
        <ele>2569.98</ele>
        <time>2018-04-05T12:27:49Z</time>
      </trkpt>
      <trkpt lat="42.84565" lon="0.1046">
        <ele>2564.28</ele>
        <time>2018-04-05T12:27:54Z</time>
      </trkpt>
      <trkpt lat="42.84583" lon="0.10455">
        <ele>2559.02</ele>
        <time>2018-04-05T12:27:58Z</time>
      </trkpt>
      <trkpt lat="42.84585" lon="0.10485">
        <ele>2557.55</ele>
        <time>2018-04-05T12:28:02Z</time>
      </trkpt>
      <trkpt lat="42.84603" lon="0.10493">
        <ele>2538.97</ele>
        <time>2018-04-05T12:28:24Z</time>
      </trkpt>
      <trkpt lat="42.84618" lon="0.10511">
        <ele>2536.53</ele>
        <time>2018-04-05T12:28:31Z</time>
      </trkpt>
      <trkpt lat="42.8463" lon="0.10538">
        <ele>2533.85</ele>
        <time>2018-04-05T12:28:36Z</time>
      </trkpt>
      <trkpt lat="42.84649" lon="0.10541">
        <ele>2527.07</ele>
        <time>2018-04-05T12:28:41Z</time>
      </trkpt>
      <trkpt lat="42.84645" lon="0.10515">
        <ele>2513.83</ele>
        <time>2018-04-05T12:30:26Z</time>
      </trkpt>
      <trkpt lat="42.84649" lon="0.10489">
        <ele>2509.86</ele>
        <time>2018-04-05T12:30:33Z</time>
      </trkpt>
      <trkpt lat="42.84669" lon="0.10488">
        <ele>2507.53</ele>
        <time>2018-04-05T12:30:39Z</time>
      </trkpt>
      <trkpt lat="42.84685" lon="0.10479">
        <ele>2499.9</ele>
        <time>2018-04-05T12:30:46Z</time>
      </trkpt>
      <trkpt lat="42.84702" lon="0.10493">
        <ele>2497.65</ele>
        <time>2018-04-05T12:30:49Z</time>
      </trkpt>
      <trkpt lat="42.84715" lon="0.10513">
        <ele>2493.95</ele>
        <time>2018-04-05T12:30:54Z</time>
      </trkpt>
      <trkpt lat="42.84734" lon="0.10513">
        <ele>2483.64</ele>
        <time>2018-04-05T12:31:38Z</time>
      </trkpt>
      <trkpt lat="42.84749" lon="0.10497">
        <ele>2475.95</ele>
        <time>2018-04-05T12:31:47Z</time>
      </trkpt>
      <trkpt lat="42.84731" lon="0.10488">
        <ele>2462.82</ele>
        <time>2018-04-05T12:34:25Z</time>
      </trkpt>
      <trkpt lat="42.84724" lon="0.10464">
        <ele>2462.52</ele>
        <time>2018-04-05T12:34:35Z</time>
      </trkpt>
      <trkpt lat="42.84743" lon="0.10466">
        <ele>2459.61</ele>
        <time>2018-04-05T12:35:05Z</time>
      </trkpt>
      <trkpt lat="42.84751" lon="0.10443">
        <ele>2453.71</ele>
        <time>2018-04-05T12:35:13Z</time>
      </trkpt>
      <trkpt lat="42.84766" lon="0.10427">
        <ele>2448.25</ele>
        <time>2018-04-05T12:35:18Z</time>
      </trkpt>
      <trkpt lat="42.84784" lon="0.10441">
        <ele>2442.95</ele>
        <time>2018-04-05T12:35:23Z</time>
      </trkpt>
      <trkpt lat="42.84797" lon="0.10462">
        <ele>2440.61</ele>
        <time>2018-04-05T12:35:43Z</time>
      </trkpt>
      <trkpt lat="42.84804" lon="0.10486">
        <ele>2437.94</ele>
        <time>2018-04-05T12:35:52Z</time>
      </trkpt>
      <trkpt lat="42.84821" lon="0.10474">
        <ele>2432.92</ele>
        <time>2018-04-05T12:36:08Z</time>
      </trkpt>
      <trkpt lat="42.84839" lon="0.10457">
        <ele>2429.03</ele>
        <time>2018-04-05T12:36:13Z</time>
      </trkpt>
      <trkpt lat="42.84854" lon="0.10434">
        <ele>2425.94</ele>
        <time>2018-04-05T12:36:18Z</time>
      </trkpt>
      <trkpt lat="42.84872" lon="0.10429">
        <ele>2421.85</ele>
        <time>2018-04-05T12:37:00Z</time>
      </trkpt>
      <trkpt lat="42.84888" lon="0.10417">
        <ele>2421.53</ele>
        <time>2018-04-05T12:37:03Z</time>
      </trkpt>
      <trkpt lat="42.84908" lon="0.10416">
        <ele>2413.52</ele>
        <time>2018-04-05T12:37:20Z</time>
      </trkpt>
      <trkpt lat="42.84926" lon="0.1041">
        <ele>2410.28</ele>
        <time>2018-04-05T12:37:24Z</time>
      </trkpt>
      <trkpt lat="42.84944" lon="0.10398">
        <ele>2404.96</ele>
        <time>2018-04-05T12:37:28Z</time>
      </trkpt>
      <trkpt lat="42.84968" lon="0.10397">
        <ele>2398.67</ele>
        <time>2018-04-05T12:37:31Z</time>
      </trkpt>
      <trkpt lat="42.84985" lon="0.10387">
        <ele>2394.04</ele>
        <time>2018-04-05T12:37:35Z</time>
      </trkpt>
      <trkpt lat="42.85008" lon="0.10382">
        <ele>2386.85</ele>
        <time>2018-04-05T12:38:38Z</time>
      </trkpt>
      <trkpt lat="42.85029" lon="0.10379">
        <ele>2386.53</ele>
        <time>2018-04-05T12:38:41Z</time>
      </trkpt>
      <trkpt lat="42.85047" lon="0.10366">
        <ele>2385.61</ele>
        <time>2018-04-05T12:38:43Z</time>
      </trkpt>
      <trkpt lat="42.85062" lon="0.1035">
        <ele>2383.22</ele>
        <time>2018-04-05T12:38:45Z</time>
      </trkpt>
      <trkpt lat="42.85074" lon="0.10331">
        <ele>2379.85</ele>
        <time>2018-04-05T12:38:50Z</time>
      </trkpt>
      <trkpt lat="42.85088" lon="0.10309">
        <ele>2375.65</ele>
        <time>2018-04-05T12:38:56Z</time>
      </trkpt>
      <trkpt lat="42.85097" lon="0.10284">
        <ele>2370.95</ele>
        <time>2018-04-05T12:39:01Z</time>
      </trkpt>
      <trkpt lat="42.85115" lon="0.1029">
        <ele>2365.25</ele>
        <time>2018-04-05T12:39:07Z</time>
      </trkpt>
      <trkpt lat="42.85122" lon="0.10265">
        <ele>2362.66</ele>
        <time>2018-04-05T12:39:10Z</time>
      </trkpt>
      <trkpt lat="42.85131" lon="0.10241">
        <ele>2360.61</ele>
        <time>2018-04-05T12:39:16Z</time>
      </trkpt>
      <trkpt lat="42.85143" lon="0.10221">
        <ele>2357.8</ele>
        <time>2018-04-05T12:39:27Z</time>
      </trkpt>
      <trkpt lat="42.85158" lon="0.10203">
        <ele>2355.91</ele>
        <time>2018-04-05T12:39:33Z</time>
      </trkpt>
      <trkpt lat="42.85167" lon="0.1018">
        <ele>2353.56</ele>
        <time>2018-04-05T12:39:37Z</time>
      </trkpt>
      <trkpt lat="42.85175" lon="0.10154">
        <ele>2353.52</ele>
        <time>2018-04-05T12:39:44Z</time>
      </trkpt>
      <trkpt lat="42.85186" lon="0.10133">
        <ele>2352.52</ele>
        <time>2018-04-05T12:39:50Z</time>
      </trkpt>
      <trkpt lat="42.85189" lon="0.10107">
        <ele>2350.59</ele>
        <time>2018-04-05T12:39:56Z</time>
      </trkpt>
      <trkpt lat="42.85192" lon="0.10077">
        <ele>2348.56</ele>
        <time>2018-04-05T12:40:00Z</time>
      </trkpt>
      <trkpt lat="42.85201" lon="0.10056">
        <ele>2347.82</ele>
        <time>2018-04-05T12:40:04Z</time>
      </trkpt>
      <trkpt lat="42.85212" lon="0.10036">
        <ele>2347.52</ele>
        <time>2018-04-05T12:40:40Z</time>
      </trkpt>
      <trkpt lat="42.85231" lon="0.10048">
        <ele>2345.53</ele>
        <time>2018-04-05T12:40:46Z</time>
      </trkpt>
      <trkpt lat="42.85249" lon="0.10057">
        <ele>2345.52</ele>
        <time>2018-04-05T12:40:49Z</time>
      </trkpt>
      <trkpt lat="42.85271" lon="0.10058">
        <ele>2343.83</ele>
        <time>2018-04-05T12:40:55Z</time>
      </trkpt>
      <trkpt lat="42.8529" lon="0.1007">
        <ele>2340.95</ele>
        <time>2018-04-05T12:40:58Z</time>
      </trkpt>
      <trkpt lat="42.85301" lon="0.10093">
        <ele>2338.85</ele>
        <time>2018-04-05T12:41:02Z</time>
      </trkpt>
      <trkpt lat="42.85316" lon="0.10106">
        <ele>2334.83</ele>
        <time>2018-04-05T12:41:16Z</time>
      </trkpt>
      <trkpt lat="42.85334" lon="0.10116">
        <ele>2332.53</ele>
        <time>2018-04-05T12:41:31Z</time>
      </trkpt>
      <trkpt lat="42.85352" lon="0.10109">
        <ele>2330.91</ele>
        <time>2018-04-05T12:41:39Z</time>
      </trkpt>
      <trkpt lat="42.8537" lon="0.10104">
        <ele>2329.56</ele>
        <time>2018-04-05T12:41:42Z</time>
      </trkpt>
      <trkpt lat="42.85391" lon="0.10096">
        <ele>2327.85</ele>
        <time>2018-04-05T12:41:45Z</time>
      </trkpt>
      <trkpt lat="42.85411" lon="0.10094">
        <ele>2325.92</ele>
        <time>2018-04-05T12:41:48Z</time>
      </trkpt>
      <trkpt lat="42.8543" lon="0.10103">
        <ele>2323.83</ele>
        <time>2018-04-05T12:41:52Z</time>
      </trkpt>
      <trkpt lat="42.85452" lon="0.10106">
        <ele>2320.56</ele>
        <time>2018-04-05T12:41:57Z</time>
      </trkpt>
      <trkpt lat="42.85467" lon="0.10121">
        <ele>2305.65</ele>
        <time>2018-04-05T12:42:25Z</time>
      </trkpt>
      <trkpt lat="42.85487" lon="0.10121">
        <ele>2297.55</ele>
        <time>2018-04-05T12:42:29Z</time>
      </trkpt>
      <trkpt lat="42.85511" lon="0.10114">
        <ele>2292.99</ele>
        <time>2018-04-05T12:42:32Z</time>
      </trkpt>
      <trkpt lat="42.85532" lon="0.10104">
        <ele>2289.73</ele>
        <time>2018-04-05T12:42:36Z</time>
      </trkpt>
      <trkpt lat="42.85549" lon="0.10097">
        <ele>2286.94</ele>
        <time>2018-04-05T12:42:39Z</time>
      </trkpt>
      <trkpt lat="42.85568" lon="0.10087">
        <ele>2283.95</ele>
        <time>2018-04-05T12:42:42Z</time>
      </trkpt>
      <trkpt lat="42.85586" lon="0.1007">
        <ele>2281.92</ele>
        <time>2018-04-05T12:42:46Z</time>
      </trkpt>
      <trkpt lat="42.85604" lon="0.10051">
        <ele>2279.83</ele>
        <time>2018-04-05T12:42:51Z</time>
      </trkpt>
      <trkpt lat="42.85621" lon="0.10034">
        <ele>2278.62</ele>
        <time>2018-04-05T12:42:54Z</time>
      </trkpt>
      <trkpt lat="42.8564" lon="0.10018">
        <ele>2275.94</ele>
        <time>2018-04-05T12:42:57Z</time>
      </trkpt>
      <trkpt lat="42.85661" lon="0.10009">
        <ele>2273.86</ele>
        <time>2018-04-05T12:43:00Z</time>
      </trkpt>
      <trkpt lat="42.85679" lon="0.10001">
        <ele>2270.95</ele>
        <time>2018-04-05T12:43:03Z</time>
      </trkpt>
      <trkpt lat="42.85699" lon="0.0999">
        <ele>2267.92</ele>
        <time>2018-04-05T12:43:07Z</time>
      </trkpt>
      <trkpt lat="42.85715" lon="0.09972">
        <ele>2265.62</ele>
        <time>2018-04-05T12:43:13Z</time>
      </trkpt>
      <trkpt lat="42.85738" lon="0.09958">
        <ele>2263.64</ele>
        <time>2018-04-05T12:43:17Z</time>
      </trkpt>
      <trkpt lat="42.85756" lon="0.0995">
        <ele>2261.22</ele>
        <time>2018-04-05T12:43:19Z</time>
      </trkpt>
      <trkpt lat="42.85776" lon="0.09949">
        <ele>2258.28</ele>
        <time>2018-04-05T12:43:21Z</time>
      </trkpt>
      <trkpt lat="42.85799" lon="0.09949">
        <ele>2253.46</ele>
        <time>2018-04-05T12:43:23Z</time>
      </trkpt>
      <trkpt lat="42.85821" lon="0.09947">
        <ele>2250.79</ele>
        <time>2018-04-05T12:43:25Z</time>
      </trkpt>
      <trkpt lat="42.8584" lon="0.09945">
        <ele>2248.94</ele>
        <time>2018-04-05T12:43:27Z</time>
      </trkpt>
      <trkpt lat="42.85864" lon="0.09935">
        <ele>2246.86</ele>
        <time>2018-04-05T12:43:30Z</time>
      </trkpt>
      <trkpt lat="42.85884" lon="0.09928">
        <ele>2243.95</ele>
        <time>2018-04-05T12:43:33Z</time>
      </trkpt>
      <trkpt lat="42.85906" lon="0.09918">
        <ele>2240.94</ele>
        <time>2018-04-05T12:43:37Z</time>
      </trkpt>
      <trkpt lat="42.85923" lon="0.09899">
        <ele>2237.92</ele>
        <time>2018-04-05T12:43:41Z</time>
      </trkpt>
      <trkpt lat="42.85933" lon="0.09872">
        <ele>2233.84</ele>
        <time>2018-04-05T12:43:46Z</time>
      </trkpt>
      <trkpt lat="42.85945" lon="0.09853">
        <ele>2231.94</ele>
        <time>2018-04-05T12:43:48Z</time>
      </trkpt>
      <trkpt lat="42.85961" lon="0.09838">
        <ele>2228.25</ele>
        <time>2018-04-05T12:43:51Z</time>
      </trkpt>
      <trkpt lat="42.85968" lon="0.09814">
        <ele>2217.86</ele>
        <time>2018-04-05T12:44:31Z</time>
      </trkpt>
      <trkpt lat="42.85973" lon="0.09785">
        <ele>2211.96</ele>
        <time>2018-04-05T12:44:36Z</time>
      </trkpt>
      <trkpt lat="42.85978" lon="0.09761">
        <ele>2206.26</ele>
        <time>2018-04-05T12:44:40Z</time>
      </trkpt>
      <trkpt lat="42.85986" lon="0.09737">
        <ele>2198.16</ele>
        <time>2018-04-05T12:44:45Z</time>
      </trkpt>
      <trkpt lat="42.85988" lon="0.0971">
        <ele>2192.04</ele>
        <time>2018-04-05T12:44:50Z</time>
      </trkpt>
      <trkpt lat="42.85985" lon="0.09686">
        <ele>2189.96</ele>
        <time>2018-04-05T12:44:52Z</time>
      </trkpt>
      <trkpt lat="42.85981" lon="0.09657">
        <ele>2185.28</ele>
        <time>2018-04-05T12:44:55Z</time>
      </trkpt>
      <trkpt lat="42.85991" lon="0.09631">
        <ele>2180.25</ele>
        <time>2018-04-05T12:45:00Z</time>
      </trkpt>
      <trkpt lat="42.85995" lon="0.09606">
        <ele>2176.93</ele>
        <time>2018-04-05T12:45:04Z</time>
      </trkpt>
      <trkpt lat="42.86011" lon="0.09591">
        <ele>2168.53</ele>
        <time>2018-04-05T12:48:19Z</time>
      </trkpt>
      <trkpt lat="42.86031" lon="0.09577">
        <ele>2164.95</ele>
        <time>2018-04-05T12:48:23Z</time>
      </trkpt>
      <trkpt lat="42.8605" lon="0.09567">
        <ele>2161.86</ele>
        <time>2018-04-05T12:48:28Z</time>
      </trkpt>
      <trkpt lat="42.86063" lon="0.0955">
        <ele>2159.62</ele>
        <time>2018-04-05T12:48:32Z</time>
      </trkpt>
      <trkpt lat="42.86082" lon="0.09544">
        <ele>2159.73</ele>
        <time>2018-04-05T12:48:36Z</time>
      </trkpt>
      <trkpt lat="42.86083" lon="0.09519">
        <ele>2157.64</ele>
        <time>2018-04-05T12:48:39Z</time>
      </trkpt>
      <trkpt lat="42.86074" lon="0.09494">
        <ele>2153.17</ele>
        <time>2018-04-05T12:48:43Z</time>
      </trkpt>
      <trkpt lat="42.86075" lon="0.09467">
        <ele>2146.98</ele>
        <time>2018-04-05T12:48:49Z</time>
      </trkpt>
      <trkpt lat="42.8607" lon="0.09436">
        <ele>2142.83</ele>
        <time>2018-04-05T12:48:52Z</time>
      </trkpt>
      <trkpt lat="42.8607" lon="0.09411">
        <ele>2142.55</ele>
        <time>2018-04-05T12:48:54Z</time>
      </trkpt>
      <trkpt lat="42.86073" lon="0.09386">
        <ele>2138.27</ele>
        <time>2018-04-05T12:48:57Z</time>
      </trkpt>
      <trkpt lat="42.86076" lon="0.09359">
        <ele>2133.99</ele>
        <time>2018-04-05T12:49:00Z</time>
      </trkpt>
      <trkpt lat="42.86084" lon="0.09333">
        <ele>2126.53</ele>
        <time>2018-04-05T12:49:27Z</time>
      </trkpt>
      <trkpt lat="42.86089" lon="0.09306">
        <ele>2121.96</ele>
        <time>2018-04-05T12:49:31Z</time>
      </trkpt>
      <trkpt lat="42.86094" lon="0.09281">
        <ele>2119.92</ele>
        <time>2018-04-05T12:49:34Z</time>
      </trkpt>
      <trkpt lat="42.86097" lon="0.09256">
        <ele>2118.65</ele>
        <time>2018-04-05T12:49:36Z</time>
      </trkpt>
      <trkpt lat="42.86105" lon="0.09226">
        <ele>2117.55</ele>
        <time>2018-04-05T12:49:39Z</time>
      </trkpt>
      <trkpt lat="42.8612" lon="0.09209">
        <ele>2113.52</ele>
        <time>2018-04-05T12:49:54Z</time>
      </trkpt>
      <trkpt lat="42.86126" lon="0.09185">
        <ele>2109.55</ele>
        <time>2018-04-05T12:50:08Z</time>
      </trkpt>
      <trkpt lat="42.86138" lon="0.09162">
        <ele>2104.22</ele>
        <time>2018-04-05T12:56:51Z</time>
      </trkpt>
      <trkpt lat="42.86152" lon="0.09143">
        <ele>2105.22</ele>
        <time>2018-04-05T12:56:55Z</time>
      </trkpt>
      <trkpt lat="42.86169" lon="0.09132">
        <ele>2105.52</ele>
        <time>2018-04-05T12:56:59Z</time>
      </trkpt>
      <trkpt lat="42.86189" lon="0.09121">
        <ele>2104.55</ele>
        <time>2018-04-05T12:57:03Z</time>
      </trkpt>
      <trkpt lat="42.8621" lon="0.09106">
        <ele>2103.55</ele>
        <time>2018-04-05T12:57:06Z</time>
      </trkpt>
      <trkpt lat="42.86232" lon="0.0909">
        <ele>2100.24</ele>
        <time>2018-04-05T12:57:09Z</time>
      </trkpt>
      <trkpt lat="42.8625" lon="0.09079">
        <ele>2097.98</ele>
        <time>2018-04-05T12:57:11Z</time>
      </trkpt>
      <trkpt lat="42.86269" lon="0.09067">
        <ele>2096.83</ele>
        <time>2018-04-05T12:57:14Z</time>
      </trkpt>
      <trkpt lat="42.86287" lon="0.09055">
        <ele>2093.94</ele>
        <time>2018-04-05T12:57:18Z</time>
      </trkpt>
      <trkpt lat="42.86304" lon="0.09041">
        <ele>2092.62</ele>
        <time>2018-04-05T12:57:22Z</time>
      </trkpt>
      <trkpt lat="42.86324" lon="0.09029">
        <ele>2087.15</ele>
        <time>2018-04-05T12:57:35Z</time>
      </trkpt>
      <trkpt lat="42.86336" lon="0.09009">
        <ele>2084.85</ele>
        <time>2018-04-05T12:57:39Z</time>
      </trkpt>
      <trkpt lat="42.86347" lon="0.08982">
        <ele>2082.91</ele>
        <time>2018-04-05T12:57:43Z</time>
      </trkpt>
      <trkpt lat="42.86354" lon="0.08953">
        <ele>2080.86</ele>
        <time>2018-04-05T12:57:46Z</time>
      </trkpt>
      <trkpt lat="42.86354" lon="0.0892">
        <ele>2078.92</ele>
        <time>2018-04-05T12:57:49Z</time>
      </trkpt>
      <trkpt lat="42.86355" lon="0.08893">
        <ele>2071.13</ele>
        <time>2018-04-05T12:58:02Z</time>
      </trkpt>
      <trkpt lat="42.86374" lon="0.08882">
        <ele>2067.26</ele>
        <time>2018-04-05T12:58:05Z</time>
      </trkpt>
      <trkpt lat="42.86388" lon="0.08863">
        <ele>2064.28</ele>
        <time>2018-04-05T12:58:07Z</time>
      </trkpt>
      <trkpt lat="42.86406" lon="0.08848">
        <ele>2061.07</ele>
        <time>2018-04-05T12:58:09Z</time>
      </trkpt>
      <trkpt lat="42.86427" lon="0.08821">
        <ele>2058.96</ele>
        <time>2018-04-05T12:58:11Z</time>
      </trkpt>
      <trkpt lat="42.86439" lon="0.08798">
        <ele>2057.2</ele>
        <time>2018-04-05T12:58:14Z</time>
      </trkpt>
      <trkpt lat="42.86434" lon="0.08822">
        <ele>2027.4</ele>
        <time>2018-04-05T13:33:27Z</time>
      </trkpt>
      <trkpt lat="42.86455" lon="0.08835">
        <ele>2025.85</ele>
        <time>2018-04-05T13:33:34Z</time>
      </trkpt>
      <trkpt lat="42.86475" lon="0.08828">
        <ele>2022.23</ele>
        <time>2018-04-05T13:33:39Z</time>
      </trkpt>
      <trkpt lat="42.86487" lon="0.08807">
        <ele>2019.52</ele>
        <time>2018-04-05T13:33:49Z</time>
      </trkpt>
      <trkpt lat="42.86488" lon="0.08834">
        <ele>2014.83</ele>
        <time>2018-04-05T13:33:57Z</time>
      </trkpt>
      <trkpt lat="42.86507" lon="0.08823">
        <ele>2009.85</ele>
        <time>2018-04-05T13:34:06Z</time>
      </trkpt>
      <trkpt lat="42.86521" lon="0.08805">
        <ele>2007.62</ele>
        <time>2018-04-05T13:34:11Z</time>
      </trkpt>
      <trkpt lat="42.86535" lon="0.08784">
        <ele>2002.86</ele>
        <time>2018-04-05T13:34:17Z</time>
      </trkpt>
      <trkpt lat="42.86553" lon="0.08787">
        <ele>1992.12</ele>
        <time>2018-04-05T13:34:29Z</time>
      </trkpt>
      <trkpt lat="42.86569" lon="0.08766">
        <ele>1985.93</ele>
        <time>2018-04-05T13:34:34Z</time>
      </trkpt>
      <trkpt lat="42.86581" lon="0.08747">
        <ele>1981.95</ele>
        <time>2018-04-05T13:34:38Z</time>
      </trkpt>
      <trkpt lat="42.86594" lon="0.08725">
        <ele>1978.65</ele>
        <time>2018-04-05T13:34:42Z</time>
      </trkpt>
      <trkpt lat="42.86608" lon="0.08703">
        <ele>1975.83</ele>
        <time>2018-04-05T13:34:47Z</time>
      </trkpt>
      <trkpt lat="42.8662" lon="0.08684">
        <ele>1971.95</ele>
        <time>2018-04-05T13:34:51Z</time>
      </trkpt>
      <trkpt lat="42.86633" lon="0.08663">
        <ele>1968.67</ele>
        <time>2018-04-05T13:34:56Z</time>
      </trkpt>
      <trkpt lat="42.86648" lon="0.08645">
        <ele>1964.86</ele>
        <time>2018-04-05T13:35:02Z</time>
      </trkpt>
      <trkpt lat="42.86661" lon="0.08626">
        <ele>1961.62</ele>
        <time>2018-04-05T13:35:08Z</time>
      </trkpt>
      <trkpt lat="42.86676" lon="0.08609">
        <ele>1957.85</ele>
        <time>2018-04-05T13:35:15Z</time>
      </trkpt>
      <trkpt lat="42.86691" lon="0.08592">
        <ele>1955.53</ele>
        <time>2018-04-05T13:35:21Z</time>
      </trkpt>
      <trkpt lat="42.86709" lon="0.08578">
        <ele>1947.03</ele>
        <time>2018-04-05T13:35:44Z</time>
      </trkpt>
      <trkpt lat="42.86726" lon="0.08566">
        <ele>1944.64</ele>
        <time>2018-04-05T13:35:48Z</time>
      </trkpt>
      <trkpt lat="42.86744" lon="0.08558">
        <ele>1941.91</ele>
        <time>2018-04-05T13:35:54Z</time>
      </trkpt>
      <trkpt lat="42.86761" lon="0.08544">
        <ele>1938.83</ele>
        <time>2018-04-05T13:36:02Z</time>
      </trkpt>
      <trkpt lat="42.86774" lon="0.08522">
        <ele>1935.64</ele>
        <time>2018-04-05T13:36:10Z</time>
      </trkpt>
      <trkpt lat="42.86792" lon="0.08523">
        <ele>1926.95</ele>
        <time>2018-04-05T13:36:23Z</time>
      </trkpt>
      <trkpt lat="42.86813" lon="0.08524">
        <ele>1920.95</ele>
        <time>2018-04-05T13:36:29Z</time>
      </trkpt>
      <trkpt lat="42.86833" lon="0.08507">
        <ele>1919.83</ele>
        <time>2018-04-05T13:36:32Z</time>
      </trkpt>
      <trkpt lat="42.86854" lon="0.08496">
        <ele>1917.86</ele>
        <time>2018-04-05T13:36:35Z</time>
      </trkpt>
      <trkpt lat="42.86873" lon="0.08491">
        <ele>1911.86</ele>
        <time>2018-04-05T13:36:42Z</time>
      </trkpt>
      <trkpt lat="42.86879" lon="0.08518">
        <ele>1905.31</ele>
        <time>2018-04-05T13:36:49Z</time>
      </trkpt>
      <trkpt lat="42.86897" lon="0.08527">
        <ele>1890.76</ele>
        <time>2018-04-05T13:36:57Z</time>
      </trkpt>
      <trkpt lat="42.86889" lon="0.08551">
        <ele>1874.86</ele>
        <time>2018-04-05T13:38:23Z</time>
      </trkpt>
      <trkpt lat="42.86878" lon="0.08573">
        <ele>1871.85</ele>
        <time>2018-04-05T13:38:29Z</time>
      </trkpt>
      <trkpt lat="42.86895" lon="0.08566">
        <ele>1867.1</ele>
        <time>2018-04-05T13:38:34Z</time>
      </trkpt>
      <trkpt lat="42.86913" lon="0.08562">
        <ele>1863.65</ele>
        <time>2018-04-05T13:38:38Z</time>
      </trkpt>
      <trkpt lat="42.8693" lon="0.08568">
        <ele>1858.24</ele>
        <time>2018-04-05T13:38:44Z</time>
      </trkpt>
      <trkpt lat="42.8695" lon="0.08551">
        <ele>1853.95</ele>
        <time>2018-04-05T13:38:48Z</time>
      </trkpt>
      <trkpt lat="42.86965" lon="0.08566">
        <ele>1846.04</ele>
        <time>2018-04-05T13:38:56Z</time>
      </trkpt>
      <trkpt lat="42.86984" lon="0.08561">
        <ele>1835.38</ele>
        <time>2018-04-05T13:39:03Z</time>
      </trkpt>
      <trkpt lat="42.86997" lon="0.08539">
        <ele>1822.94</ele>
        <time>2018-04-05T13:39:22Z</time>
      </trkpt>
      <trkpt lat="42.87012" lon="0.08523">
        <ele>1820.92</ele>
        <time>2018-04-05T13:39:26Z</time>
      </trkpt>
      <trkpt lat="42.87023" lon="0.085">
        <ele>1816.86</ele>
        <time>2018-04-05T13:39:32Z</time>
      </trkpt>
      <trkpt lat="42.87043" lon="0.08505">
        <ele>1809.95</ele>
        <time>2018-04-05T13:39:40Z</time>
      </trkpt>
      <trkpt lat="42.87061" lon="0.08495">
        <ele>1807.65</ele>
        <time>2018-04-05T13:39:43Z</time>
      </trkpt>
      <trkpt lat="42.8708" lon="0.08491">
        <ele>1797.96</ele>
        <time>2018-04-05T13:39:50Z</time>
      </trkpt>
      <trkpt lat="42.871" lon="0.08483">
        <ele>1790.64</ele>
        <time>2018-04-05T13:39:59Z</time>
      </trkpt>
      <trkpt lat="42.87118" lon="0.08474">
        <ele>1787.53</ele>
        <time>2018-04-05T13:40:25Z</time>
      </trkpt>
      <trkpt lat="42.87135" lon="0.08463">
        <ele>1785.83</ele>
        <time>2018-04-05T13:40:29Z</time>
      </trkpt>
      <trkpt lat="42.87153" lon="0.08444">
        <ele>1783.82</ele>
        <time>2018-04-05T13:40:35Z</time>
      </trkpt>
      <trkpt lat="42.8717" lon="0.08432">
        <ele>1781.55</ele>
        <time>2018-04-05T13:40:40Z</time>
      </trkpt>
      <trkpt lat="42.87188" lon="0.08433">
        <ele>1776.62</ele>
        <time>2018-04-05T13:40:48Z</time>
      </trkpt>
      <trkpt lat="42.87207" lon="0.08428">
        <ele>1772.82</ele>
        <time>2018-04-05T13:40:57Z</time>
      </trkpt>
      <trkpt lat="42.87226" lon="0.0842">
        <ele>1772.52</ele>
        <time>2018-04-05T13:41:03Z</time>
      </trkpt>
      <trkpt lat="42.87244" lon="0.08415">
        <ele>1770.34</ele>
        <time>2018-04-05T13:41:11Z</time>
      </trkpt>
      <trkpt lat="42.87263" lon="0.08407">
        <ele>1766.65</ele>
        <time>2018-04-05T13:41:17Z</time>
      </trkpt>
      <trkpt lat="42.87282" lon="0.08402">
        <ele>1762.92</ele>
        <time>2018-04-05T13:41:22Z</time>
      </trkpt>
      <trkpt lat="42.87305" lon="0.084">
        <ele>1760.85</ele>
        <time>2018-04-05T13:41:26Z</time>
      </trkpt>
      <trkpt lat="42.87328" lon="0.08401">
        <ele>1758.91</ele>
        <time>2018-04-05T13:41:30Z</time>
      </trkpt>
      <trkpt lat="42.87349" lon="0.08399">
        <ele>1755.86</ele>
        <time>2018-04-05T13:41:34Z</time>
      </trkpt>
      <trkpt lat="42.87366" lon="0.08385">
        <ele>1752.83</ele>
        <time>2018-04-05T13:41:39Z</time>
      </trkpt>
      <trkpt lat="42.87384" lon="0.0837">
        <ele>1750.85</ele>
        <time>2018-04-05T13:41:44Z</time>
      </trkpt>
      <trkpt lat="42.8737" lon="0.08386">
        <ele>1735.62</ele>
        <time>2018-04-05T13:43:28Z</time>
      </trkpt>
      <trkpt lat="42.87382" lon="0.08404">
        <ele>1721.61</ele>
        <time>2018-04-05T13:45:18Z</time>
      </trkpt>
      <trkpt lat="42.87401" lon="0.08406">
        <ele>1719.76</ele>
        <time>2018-04-05T13:45:24Z</time>
      </trkpt>
      <trkpt lat="42.87419" lon="0.08418">
        <ele>1718.83</ele>
        <time>2018-04-05T13:45:30Z</time>
      </trkpt>
      <trkpt lat="42.87435" lon="0.08407">
        <ele>1709.56</ele>
        <time>2018-04-05T13:45:39Z</time>
      </trkpt>
      <trkpt lat="42.87437" lon="0.08433">
        <ele>1702.75</ele>
        <time>2018-04-05T13:45:49Z</time>
      </trkpt>
      <trkpt lat="42.87455" lon="0.08449">
        <ele>1696.12</ele>
        <time>2018-04-05T13:45:55Z</time>
      </trkpt>
      <trkpt lat="42.87471" lon="0.08439">
        <ele>1693.46</ele>
        <time>2018-04-05T13:46:04Z</time>
      </trkpt>
      <trkpt lat="42.8749" lon="0.08444">
        <ele>1690.84</ele>
        <time>2018-04-05T13:46:26Z</time>
      </trkpt>
      <trkpt lat="42.87508" lon="0.08439">
        <ele>1688.43</ele>
        <time>2018-04-05T13:46:36Z</time>
      </trkpt>
      <trkpt lat="42.87527" lon="0.08431">
        <ele>1680.62</ele>
        <time>2018-04-05T13:46:57Z</time>
      </trkpt>
      <trkpt lat="42.87547" lon="0.08424">
        <ele>1673.94</ele>
        <time>2018-04-05T13:47:08Z</time>
      </trkpt>
      <trkpt lat="42.87565" lon="0.08418">
        <ele>1670.15</ele>
        <time>2018-04-05T13:47:13Z</time>
      </trkpt>
      <trkpt lat="42.87584" lon="0.0842">
        <ele>1665.65</ele>
        <time>2018-04-05T13:47:22Z</time>
      </trkpt>
      <trkpt lat="42.87605" lon="0.08423">
        <ele>1660.61</ele>
        <time>2018-04-05T13:47:35Z</time>
      </trkpt>
      <trkpt lat="42.87623" lon="0.08425">
        <ele>1654.62</ele>
        <time>2018-04-05T13:47:48Z</time>
      </trkpt>
      <trkpt lat="42.87645" lon="0.0842">
        <ele>1649.92</ele>
        <time>2018-04-05T13:47:57Z</time>
      </trkpt>
      <trkpt lat="42.87663" lon="0.08407">
        <ele>1646.92</ele>
        <time>2018-04-05T13:48:01Z</time>
      </trkpt>
      <trkpt lat="42.87685" lon="0.08402">
        <ele>1645.55</ele>
        <time>2018-04-05T13:48:05Z</time>
      </trkpt>
      <trkpt lat="42.87705" lon="0.08401">
        <ele>1644.53</ele>
        <time>2018-04-05T13:48:09Z</time>
      </trkpt>
      <trkpt lat="42.87724" lon="0.084">
        <ele>1644.52</ele>
        <time>2018-04-05T13:48:15Z</time>
      </trkpt>
      <trkpt lat="42.87742" lon="0.08393">
        <ele>1639.62</ele>
        <time>2018-04-05T13:48:32Z</time>
      </trkpt>
      <trkpt lat="42.87761" lon="0.08387">
        <ele>1638.52</ele>
        <time>2018-04-05T13:48:43Z</time>
      </trkpt>
      <trkpt lat="42.87778" lon="0.08378">
        <ele>1639.52</ele>
        <time>2018-04-05T13:48:56Z</time>
      </trkpt>
      <trkpt lat="42.87796" lon="0.08371">
        <ele>1639.44</ele>
        <time>2018-04-05T13:49:06Z</time>
      </trkpt>
      <trkpt lat="42.87813" lon="0.0836">
        <ele>1639.25</ele>
        <time>2018-04-05T13:49:13Z</time>
      </trkpt>
      <trkpt lat="42.87833" lon="0.08347">
        <ele>1638.8</ele>
        <time>2018-04-05T13:49:19Z</time>
      </trkpt>
      <trkpt lat="42.87848" lon="0.08331">
        <ele>1638.5</ele>
        <time>2018-04-05T13:49:24Z</time>
      </trkpt>
      <trkpt lat="42.87862" lon="0.08314">
        <ele>1637.82</ele>
        <time>2018-04-05T13:49:30Z</time>
      </trkpt>
      <trkpt lat="42.8788" lon="0.08305">
        <ele>1637.52</ele>
        <time>2018-04-05T13:49:36Z</time>
      </trkpt>
      <trkpt lat="42.87899" lon="0.08296">
        <ele>1636.82</ele>
        <time>2018-04-05T13:49:44Z</time>
      </trkpt>
      <trkpt lat="42.87916" lon="0.08284">
        <ele>1635.8</ele>
        <time>2018-04-05T13:50:05Z</time>
      </trkpt>
      <trkpt lat="42.87935" lon="0.08277">
        <ele>1637.49</ele>
        <time>2018-04-05T13:50:17Z</time>
      </trkpt>
      <trkpt lat="42.87951" lon="0.08289">
        <ele>1634.52</ele>
        <time>2018-04-05T13:51:27Z</time>
      </trkpt>
      <trkpt lat="42.87968" lon="0.08299">
        <ele>1637.43</ele>
        <time>2018-04-05T13:51:47Z</time>
      </trkpt>
      <trkpt lat="42.87988" lon="0.08297">
        <ele>1636.51</ele>
        <time>2018-04-05T13:52:19Z</time>
      </trkpt>
      <trkpt lat="42.88005" lon="0.08287">
        <ele>1635.82</ele>
        <time>2018-04-05T13:52:25Z</time>
      </trkpt>
      <trkpt lat="42.88023" lon="0.08273">
        <ele>1632.86</ele>
        <time>2018-04-05T13:52:30Z</time>
      </trkpt>
      <trkpt lat="42.88045" lon="0.08261">
        <ele>1631.55</ele>
        <time>2018-04-05T13:52:35Z</time>
      </trkpt>
      <trkpt lat="42.88063" lon="0.08251">
        <ele>1631.52</ele>
        <time>2018-04-05T13:52:39Z</time>
      </trkpt>
      <trkpt lat="42.8808" lon="0.0824">
        <ele>1629.56</ele>
        <time>2018-04-05T13:52:43Z</time>
      </trkpt>
      <trkpt lat="42.88098" lon="0.08228">
        <ele>1628.61</ele>
        <time>2018-04-05T13:52:47Z</time>
      </trkpt>
      <trkpt lat="42.88115" lon="0.08214">
        <ele>1626.91</ele>
        <time>2018-04-05T13:52:51Z</time>
      </trkpt>
      <trkpt lat="42.88134" lon="0.08215">
        <ele>1626.46</ele>
        <time>2018-04-05T13:52:56Z</time>
      </trkpt>
      <trkpt lat="42.88152" lon="0.08218">
        <ele>1623.85</ele>
        <time>2018-04-05T13:53:03Z</time>
      </trkpt>
      <trkpt lat="42.88169" lon="0.08207">
        <ele>1621.55</ele>
        <time>2018-04-05T13:53:11Z</time>
      </trkpt>
      <trkpt lat="42.88188" lon="0.08208">
        <ele>1619.55</ele>
        <time>2018-04-05T13:53:16Z</time>
      </trkpt>
      <trkpt lat="42.88205" lon="0.08217">
        <ele>1615.5</ele>
        <time>2018-04-05T13:53:46Z</time>
      </trkpt>
      <trkpt lat="42.88224" lon="0.08221">
        <ele>1613.52</ele>
        <time>2018-04-05T13:54:20Z</time>
      </trkpt>
      <trkpt lat="42.88244" lon="0.08218">
        <ele>1611.55</ele>
        <time>2018-04-05T13:54:27Z</time>
      </trkpt>
      <trkpt lat="42.88264" lon="0.08215">
        <ele>1609.55</ele>
        <time>2018-04-05T13:54:33Z</time>
      </trkpt>
      <trkpt lat="42.88284" lon="0.08212">
        <ele>1608.61</ele>
        <time>2018-04-05T13:54:39Z</time>
      </trkpt>
      <trkpt lat="42.88303" lon="0.08211">
        <ele>1607.61</ele>
        <time>2018-04-05T13:54:45Z</time>
      </trkpt>
      <trkpt lat="42.88322" lon="0.0821">
        <ele>1606.61</ele>
        <time>2018-04-05T13:54:50Z</time>
      </trkpt>
      <trkpt lat="42.88342" lon="0.08211">
        <ele>1605.52</ele>
        <time>2018-04-05T13:54:56Z</time>
      </trkpt>
      <trkpt lat="42.88361" lon="0.08213">
        <ele>1603.85</ele>
        <time>2018-04-05T13:55:05Z</time>
      </trkpt>
      <trkpt lat="42.8838" lon="0.08212">
        <ele>1602.52</ele>
        <time>2018-04-05T13:55:14Z</time>
      </trkpt>
      <trkpt lat="42.88399" lon="0.08209">
        <ele>1602.52</ele>
        <time>2018-04-05T13:55:23Z</time>
      </trkpt>
      <trkpt lat="42.88418" lon="0.0821">
        <ele>1601.53</ele>
        <time>2018-04-05T13:55:28Z</time>
      </trkpt>
      <trkpt lat="42.88437" lon="0.08211">
        <ele>1602.41</ele>
        <time>2018-04-05T13:55:33Z</time>
      </trkpt>
      <trkpt lat="42.88457" lon="0.08215">
        <ele>1599.83</ele>
        <time>2018-04-05T13:55:41Z</time>
      </trkpt>
      <trkpt lat="42.88478" lon="0.08225">
        <ele>1597.83</ele>
        <time>2018-04-05T13:55:46Z</time>
      </trkpt>
      <trkpt lat="42.88495" lon="0.08237">
        <ele>1596.82</ele>
        <time>2018-04-05T13:55:50Z</time>
      </trkpt>
      <trkpt lat="42.88512" lon="0.08251">
        <ele>1596.52</ele>
        <time>2018-04-05T13:55:58Z</time>
      </trkpt>
      <trkpt lat="42.88529" lon="0.08261">
        <ele>1597.52</ele>
        <time>2018-04-05T13:56:19Z</time>
      </trkpt>
      <trkpt lat="42.88548" lon="0.08263">
        <ele>1595.53</ele>
        <time>2018-04-05T13:56:29Z</time>
      </trkpt>
      <trkpt lat="42.88566" lon="0.08269">
        <ele>1593.61</ele>
        <time>2018-04-05T13:56:37Z</time>
      </trkpt>
      <trkpt lat="42.88585" lon="0.08276">
        <ele>1592.52</ele>
        <time>2018-04-05T13:56:45Z</time>
      </trkpt>
      <trkpt lat="42.88605" lon="0.08278">
        <ele>1591.29</ele>
        <time>2018-04-05T13:56:55Z</time>
      </trkpt>
      <trkpt lat="42.88624" lon="0.08283">
        <ele>1588.84</ele>
        <time>2018-04-05T13:57:03Z</time>
      </trkpt>
      <trkpt lat="42.88643" lon="0.08289">
        <ele>1590.51</ele>
        <time>2018-04-05T13:57:11Z</time>
      </trkpt>
      <trkpt lat="42.88662" lon="0.08296">
        <ele>1591.22</ele>
        <time>2018-04-05T13:57:24Z</time>
      </trkpt>
      <trkpt lat="42.88678" lon="0.08312">
        <ele>1585.22</ele>
        <time>2018-04-05T13:58:19Z</time>
      </trkpt>
      <trkpt lat="42.88691" lon="0.08329">
        <ele>1586.51</ele>
        <time>2018-04-05T13:58:34Z</time>
      </trkpt>
      <trkpt lat="42.88708" lon="0.08337">
        <ele>1586.81</ele>
        <time>2018-04-05T14:03:32Z</time>
      </trkpt>
      <trkpt lat="42.88726" lon="0.08342">
        <ele>1586.76</ele>
        <time>2018-04-05T14:03:39Z</time>
      </trkpt>
      <trkpt lat="42.88746" lon="0.08344">
        <ele>1585.52</ele>
        <time>2018-04-05T14:03:48Z</time>
      </trkpt>
      <trkpt lat="42.88766" lon="0.0834">
        <ele>1584.53</ele>
        <time>2018-04-05T14:03:59Z</time>
      </trkpt>
      <trkpt lat="42.88784" lon="0.08344">
        <ele>1582.86</ele>
        <time>2018-04-05T14:04:07Z</time>
      </trkpt>
      <trkpt lat="42.88802" lon="0.0834">
        <ele>1580.55</ele>
        <time>2018-04-05T14:04:39Z</time>
      </trkpt>
      <trkpt lat="42.88821" lon="0.08346">
        <ele>1578.61</ele>
        <time>2018-04-05T14:04:57Z</time>
      </trkpt>
      <trkpt lat="42.88837" lon="0.08335">
        <ele>1580.54</ele>
        <time>2018-04-05T14:05:33Z</time>
      </trkpt>
      <trkpt lat="42.88854" lon="0.08322">
        <ele>1579.52</ele>
        <time>2018-04-05T14:05:43Z</time>
      </trkpt>
      <trkpt lat="42.88871" lon="0.08313">
        <ele>1578.55</ele>
        <time>2018-04-05T14:05:51Z</time>
      </trkpt>
      <trkpt lat="42.88891" lon="0.08313">
        <ele>1579.23</ele>
        <time>2018-04-05T14:06:03Z</time>
      </trkpt>
      <trkpt lat="42.88909" lon="0.08315">
        <ele>1582.71</ele>
        <time>2018-04-05T14:06:17Z</time>
      </trkpt>
      <trkpt lat="42.88927" lon="0.08314">
        <ele>1582.52</ele>
        <time>2018-04-05T14:06:25Z</time>
      </trkpt>
      <trkpt lat="42.88946" lon="0.08312">
        <ele>1581.53</ele>
        <time>2018-04-05T14:06:38Z</time>
      </trkpt>
      <trkpt lat="42.88964" lon="0.08308">
        <ele>1579.53</ele>
        <time>2018-04-05T14:06:54Z</time>
      </trkpt>
      <trkpt lat="42.88982" lon="0.08301">
        <ele>1578.83</ele>
        <time>2018-04-05T14:07:08Z</time>
      </trkpt>
      <trkpt lat="42.89001" lon="0.08295">
        <ele>1579.21</ele>
        <time>2018-04-05T14:07:20Z</time>
      </trkpt>
      <trkpt lat="42.89019" lon="0.08288">
        <ele>1576.31</ele>
        <time>2018-04-05T14:07:36Z</time>
      </trkpt>
      <trkpt lat="42.89037" lon="0.08279">
        <ele>1575.52</ele>
        <time>2018-04-05T14:07:54Z</time>
      </trkpt>
      <trkpt lat="42.89055" lon="0.0827">
        <ele>1577.52</ele>
        <time>2018-04-05T14:08:08Z</time>
      </trkpt>
      <trkpt lat="42.89073" lon="0.08267">
        <ele>1575.61</ele>
        <time>2018-04-05T14:08:16Z</time>
      </trkpt>
      <trkpt lat="42.89092" lon="0.08263">
        <ele>1572.83</ele>
        <time>2018-04-05T14:08:23Z</time>
      </trkpt>
      <trkpt lat="42.8911" lon="0.08256">
        <ele>1571.53</ele>
        <time>2018-04-05T14:08:28Z</time>
      </trkpt>
      <trkpt lat="42.8913" lon="0.08252">
        <ele>1570.53</ele>
        <time>2018-04-05T14:08:34Z</time>
      </trkpt>
      <trkpt lat="42.89149" lon="0.08245">
        <ele>1568.59</ele>
        <time>2018-04-05T14:08:41Z</time>
      </trkpt>
      <trkpt lat="42.89167" lon="0.08237">
        <ele>1565.65</ele>
        <time>2018-04-05T14:08:46Z</time>
      </trkpt>
      <trkpt lat="42.89186" lon="0.08227">
        <ele>1562.86</ele>
        <time>2018-04-05T14:08:50Z</time>
      </trkpt>
      <trkpt lat="42.89205" lon="0.08214">
        <ele>1560.62</ele>
        <time>2018-04-05T14:08:55Z</time>
      </trkpt>
      <trkpt lat="42.89221" lon="0.082">
        <ele>1558.55</ele>
        <time>2018-04-05T14:09:02Z</time>
      </trkpt>
      <trkpt lat="42.89237" lon="0.08187">
        <ele>1555.65</ele>
        <time>2018-04-05T14:09:06Z</time>
      </trkpt>
      <trkpt lat="42.89257" lon="0.08172">
        <ele>1553.85</ele>
        <time>2018-04-05T14:09:10Z</time>
      </trkpt>
      <trkpt lat="42.89277" lon="0.08166">
        <ele>1550.94</ele>
        <time>2018-04-05T14:09:14Z</time>
      </trkpt>
      <trkpt lat="42.89298" lon="0.08159">
        <ele>1546.94</ele>
        <time>2018-04-05T14:09:19Z</time>
      </trkpt>
      <trkpt lat="42.89317" lon="0.08157">
        <ele>1543.85</ele>
        <time>2018-04-05T14:09:24Z</time>
      </trkpt>
      <trkpt lat="42.89335" lon="0.08154">
        <ele>1539.74</ele>
        <time>2018-04-05T14:09:28Z</time>
      </trkpt>
      <trkpt lat="42.89352" lon="0.08148">
        <ele>1536.92</ele>
        <time>2018-04-05T14:09:32Z</time>
      </trkpt>
      <trkpt lat="42.89371" lon="0.08141">
        <ele>1534.13</ele>
        <time>2018-04-05T14:09:37Z</time>
      </trkpt>
      <trkpt lat="42.89391" lon="0.08136">
        <ele>1531.62</ele>
        <time>2018-04-05T14:09:42Z</time>
      </trkpt>
      <trkpt lat="42.89411" lon="0.08141">
        <ele>1528.92</ele>
        <time>2018-04-05T14:09:46Z</time>
      </trkpt>
      <trkpt lat="42.89417" lon="0.08166">
        <ele>1525.52</ele>
        <time>2018-04-05T14:10:12Z</time>
      </trkpt>
      <trkpt lat="42.89412" lon="0.0819">
        <ele>1523.53</ele>
        <time>2018-04-05T14:10:33Z</time>
      </trkpt>
      <trkpt lat="42.89406" lon="0.08214">
        <ele>1521.53</ele>
        <time>2018-04-05T14:10:52Z</time>
      </trkpt>
      <trkpt lat="42.89401" lon="0.08239">
        <ele>1519.53</ele>
        <time>2018-04-05T14:11:12Z</time>
      </trkpt>
      <trkpt lat="42.89405" lon="0.08264">
        <ele>1518.9</ele>
        <time>2018-04-05T14:11:24Z</time>
      </trkpt>
      <trkpt lat="42.89423" lon="0.08269">
        <ele>1519.52</ele>
        <time>2018-04-05T14:12:28Z</time>
      </trkpt>
      <trkpt lat="42.89441" lon="0.08272">
        <ele>1523.21</ele>
        <time>2018-04-05T14:12:48Z</time>
      </trkpt>
      <trkpt lat="42.89457" lon="0.08286">
        <ele>1526.58</ele>
        <time>2018-04-05T14:13:08Z</time>
      </trkpt>
      <trkpt lat="42.89467" lon="0.08306">
        <ele>1528.82</ele>
        <time>2018-04-05T14:13:26Z</time>
      </trkpt>
      <trkpt lat="42.89476" lon="0.0833">
        <ele>1526.91</ele>
        <time>2018-04-05T14:13:51Z</time>
      </trkpt>
      <trkpt lat="42.89496" lon="0.08332">
        <ele>1525.52</ele>
        <time>2018-04-05T14:14:16Z</time>
      </trkpt>
      <trkpt lat="42.89515" lon="0.08323">
        <ele>1526.52</ele>
        <time>2018-04-05T14:14:31Z</time>
      </trkpt>
      <trkpt lat="42.8953" lon="0.08308">
        <ele>1527.49</ele>
        <time>2018-04-05T14:14:46Z</time>
      </trkpt>
      <trkpt lat="42.89547" lon="0.08294">
        <ele>1529.52</ele>
        <time>2018-04-05T14:15:01Z</time>
      </trkpt>
      <trkpt lat="42.89563" lon="0.0828">
        <ele>1529.29</ele>
        <time>2018-04-05T14:15:22Z</time>
      </trkpt>
      <trkpt lat="42.89575" lon="0.0826">
        <ele>1526.43</ele>
        <time>2018-04-05T14:15:41Z</time>
      </trkpt>
      <trkpt lat="42.89593" lon="0.08254">
        <ele>1530.49</ele>
        <time>2018-04-05T14:16:00Z</time>
      </trkpt>
      <trkpt lat="42.89608" lon="0.0824">
        <ele>1529.53</ele>
        <time>2018-04-05T14:16:18Z</time>
      </trkpt>
    </trkseg>
  </trk>
</gpx>